<?xml version="1.0" encoding="UTF-8" standalone="no" ?>
<gpx xmlns="http://www.topografix.com/GPX/1/1" creator="OruxMaps v.10.7.2 GP" version="1.1" xmlns:gpxtpx="http://www.garmin.com/xmlschemas/TrackPointExtension/v2" xmlns:xsi="http://www.w3.org/2001/XMLSchema-instance" xmlns:om="http://www.oruxmaps.com/oruxmapsextensions/1/0" xsi:schemaLocation="http://www.topografix.com/GPX/1/1 http://www.topografix.com/GPX/1/1/gpx.xsd">
<!-- owner: b9c65f69f0f6d0 -->
<metadata>
<name><![CDATA[2024-08-17 10:12:30]]></name>
<link href="https://www.oruxmaps.com">
<text>OruxMaps GP</text>
</link>
<time>2024-08-17T08:12:30.433Z</time><bounds maxlat="41.7954217" maxlon="13.7834917" minlat="41.7620050" minlon="13.7595967"/>
</metadata>
<wpt lat="41.7950900" lon="13.7833767">
<ele>1152.66</ele>
<time>2024-08-17T08:12:32.793Z</time>
<name><![CDATA[]]></name>
<sym>Waypoint</sym>
<type>Punto iniziale</type>
<extensions>
<om:oruxmapsextensions>
<om:ext type="ICON" subtype="0">38</om:ext>
</om:oruxmapsextensions>
</extensions>
</wpt>
<wpt lat="41.7643000" lon="13.7595967">
<ele>1595.93</ele>
<time>2024-08-17T09:36:46.855Z</time>
<name><![CDATA[]]></name>
<desc><![CDATA[<p><br /><h3>Nome: Segment: 1</h3><br />Tipo: Non definito<br/>Orario inizio: 10:12 17 Ago 2024<br/>Orario fine: 11:35 17 Ago 2024<br/>Distanza: 7,8km (01:22)<br/>Tempo movimento: 01:17<br/>Velocità media: 5,64 km/h<br/>Velocità in movimento: 6,04 km/h<br/>Velocità max: 27,48 km/h<br/>Altitudine minima: 1152 m<br/>Altitudine massima: 1601 m<br/>Velocità di salita: 453,9 m/h<br/>Velocità in discesa: 600,2 m/h<br/>Dislivello positivo: 519 m<br/>Dislivello negativo: 80 m<br/>Tempo di salita: 01:08<br/>Tempo di discesa: 00:08<br/></p>]]></desc>
<sym>Waypoint</sym>
<type>Punto finale</type>
<extensions>
<om:oruxmapsextensions>
<om:ext type="ICON" subtype="0">15</om:ext>
</om:oruxmapsextensions>
</extensions>
</wpt>
<wpt lat="41.7643000" lon="13.7595967">
<ele>1595.93</ele>
<time>2024-08-17T09:45:48.211Z</time>
<name><![CDATA[]]></name>
<desc><![CDATA[<p><br /><h3>Nome: Segment: 1</h3><br />Tipo: Non definito<br/>Orario inizio: 10:12 17 Ago 2024<br/>Orario fine: 11:35 17 Ago 2024<br/>Distanza: 7,8km (01:22)<br/>Tempo movimento: 01:17<br/>Velocità media: 5,64 km/h<br/>Velocità in movimento: 6,04 km/h<br/>Velocità max: 27,48 km/h<br/>Altitudine minima: 1152 m<br/>Altitudine massima: 1601 m<br/>Velocità di salita: 453,9 m/h<br/>Velocità in discesa: 600,2 m/h<br/>Dislivello positivo: 519 m<br/>Dislivello negativo: 80 m<br/>Tempo di salita: 01:08<br/>Tempo di discesa: 00:08<br/></p>]]></desc>
<sym>Waypoint</sym>
<type>Punto finale</type>
<extensions>
<om:oruxmapsextensions>
<om:ext type="ICON" subtype="0">15</om:ext>
</om:oruxmapsextensions>
</extensions>
</wpt>
<wpt lat="41.7645517" lon="13.7603050">
<ele>1601.34</ele>
<time>2024-08-17T09:45:49.931Z</time>
<name><![CDATA[]]></name>
<sym>Waypoint</sym>
<type>Punto iniziale</type>
<extensions>
<om:oruxmapsextensions>
<om:ext type="ICON" subtype="0">38</om:ext>
</om:oruxmapsextensions>
</extensions>
</wpt>
<wpt lat="41.7951067" lon="13.7834917">
<ele>1165.27</ele>
<time>2024-08-17T10:40:35.231Z</time>
<name><![CDATA[]]></name>
<desc><![CDATA[<p><br /><h3>Nome: Segment: 2</h3><br />Tipo: Non definito<br/>Orario inizio: 11:45 17 Ago 2024<br/>Orario fine: 12:39 17 Ago 2024<br/>Distanza: 7,5km (00:54)<br/>Tempo movimento: 00:49<br/>Velocità media: 8,28 km/h<br/>Velocità in movimento: 9,15 km/h<br/>Velocità max: 17,54 km/h<br/>Altitudine minima: 1163 m<br/>Altitudine massima: 1601 m<br/>Velocità di salita: 540,9 m/h<br/>Velocità in discesa: 769,2 m/h<br/>Dislivello positivo: 78 m<br/>Dislivello negativo: 515 m<br/>Tempo di salita: 00:08<br/>Tempo di discesa: 00:40<br/></p>]]></desc>
<sym>Waypoint</sym>
<type>Punto finale</type>
<extensions>
<om:oruxmapsextensions>
<om:ext type="ICON" subtype="0">15</om:ext>
</om:oruxmapsextensions>
</extensions>
</wpt>
<trk>
<name><![CDATA[2024-08-17 10:12:30]]></name>
<desc><![CDATA[<p>Tipo: Non definito<br/>Orario inizio: 10:12 17 Ago 2024<br/>Orario fine: 12:39 17 Ago 2024<br/>Distanza: 15,3 km (02:16)<br/>Tempo movimento: 02:16<br/>Velocità media: 6,69 km/h<br/>Velocità in movimento: 6,69 km/h<br/>Velocità max: 27,48 km/h<br/>Altitudine minima: 1152 m<br/>Altitudine massima: 1602 m<br/>Velocità di salita: 556,2 m/h<br/>Velocità in discesa: 642,7 m/h<br/>Dislivello positivo: 683 m<br/>Dislivello negativo: 676 m<br/>Tempo di salita: 01:13<br/>Tempo di discesa: 01:03<br/></p><hr align="center" width="480" style="height: 2px; width: 517px"/>]]></desc>
<type>Non definito</type>
<extensions>
<om:oruxmapsextensions>
<om:ext type="TYPE" subtype="0">0</om:ext>
<om:ext type="DIFFICULTY">0</om:ext>
</om:oruxmapsextensions>
</extensions>
<trkseg>
<trkpt lat="41.7950900" lon="13.7833767">
<ele>1152.66</ele>
<time>2024-08-17T08:12:32.771Z</time>
</trkpt>
<trkpt lat="41.7951183" lon="13.7833700">
<ele>1154.81</ele>
<time>2024-08-17T08:12:33.771Z</time>
</trkpt>
<trkpt lat="41.7952900" lon="13.7832567">
<ele>1163.07</ele>
<time>2024-08-17T08:12:49.000Z</time>
</trkpt>
<trkpt lat="41.7954217" lon="13.7830900">
<ele>1168.13</ele>
<time>2024-08-17T08:13:10.000Z</time>
</trkpt>
<trkpt lat="41.7952483" lon="13.7829833">
<ele>1165.31</ele>
<time>2024-08-17T08:13:46.000Z</time>
</trkpt>
<trkpt lat="41.7950833" lon="13.7830833">
<ele>1165.88</ele>
<time>2024-08-17T08:13:52.000Z</time>
</trkpt>
<trkpt lat="41.7949033" lon="13.7832150">
<ele>1167.37</ele>
<time>2024-08-17T08:13:59.000Z</time>
</trkpt>
<trkpt lat="41.7947433" lon="13.7830850">
<ele>1164.01</ele>
<time>2024-08-17T08:14:07.000Z</time>
</trkpt>
<trkpt lat="41.7946750" lon="13.7828250">
<ele>1164.50</ele>
<time>2024-08-17T08:14:15.000Z</time>
</trkpt>
<trkpt lat="41.7946233" lon="13.7825583">
<ele>1165.91</ele>
<time>2024-08-17T08:14:22.000Z</time>
</trkpt>
<trkpt lat="41.7945883" lon="13.7823017">
<ele>1164.45</ele>
<time>2024-08-17T08:14:28.000Z</time>
</trkpt>
<trkpt lat="41.7945633" lon="13.7820600">
<ele>1166.53</ele>
<time>2024-08-17T08:14:35.000Z</time>
</trkpt>
<trkpt lat="41.7944883" lon="13.7818133">
<ele>1168.43</ele>
<time>2024-08-17T08:14:43.000Z</time>
</trkpt>
<trkpt lat="41.7943983" lon="13.7815917">
<ele>1168.36</ele>
<time>2024-08-17T08:14:51.000Z</time>
</trkpt>
<trkpt lat="41.7943417" lon="13.7813383">
<ele>1171.02</ele>
<time>2024-08-17T08:15:00.000Z</time>
</trkpt>
<trkpt lat="41.7942717" lon="13.7811000">
<ele>1171.57</ele>
<time>2024-08-17T08:15:09.000Z</time>
</trkpt>
<trkpt lat="41.7942200" lon="13.7808567">
<ele>1172.68</ele>
<time>2024-08-17T08:15:18.000Z</time>
</trkpt>
<trkpt lat="41.7941300" lon="13.7806383">
<ele>1172.82</ele>
<time>2024-08-17T08:15:28.000Z</time>
</trkpt>
<trkpt lat="41.7940683" lon="13.7803883">
<ele>1172.91</ele>
<time>2024-08-17T08:16:01.000Z</time>
</trkpt>
<trkpt lat="41.7939950" lon="13.7801517">
<ele>1172.91</ele>
<time>2024-08-17T08:16:09.000Z</time>
</trkpt>
<trkpt lat="41.7938867" lon="13.7799483">
<ele>1174.82</ele>
<time>2024-08-17T08:16:19.000Z</time>
</trkpt>
<trkpt lat="41.7937983" lon="13.7797367">
<ele>1174.68</ele>
<time>2024-08-17T08:16:27.000Z</time>
</trkpt>
<trkpt lat="41.7937233" lon="13.7794950">
<ele>1176.03</ele>
<time>2024-08-17T08:16:36.000Z</time>
</trkpt>
<trkpt lat="41.7936100" lon="13.7792917">
<ele>1176.96</ele>
<time>2024-08-17T08:16:46.000Z</time>
</trkpt>
<trkpt lat="41.7934400" lon="13.7791450">
<ele>1176.49</ele>
<time>2024-08-17T08:16:55.000Z</time>
</trkpt>
<trkpt lat="41.7932600" lon="13.7790250">
<ele>1175.77</ele>
<time>2024-08-17T08:17:03.000Z</time>
</trkpt>
<trkpt lat="41.7930850" lon="13.7789200">
<ele>1175.94</ele>
<time>2024-08-17T08:17:11.000Z</time>
</trkpt>
<trkpt lat="41.7929067" lon="13.7788850">
<ele>1180.30</ele>
<time>2024-08-17T08:17:18.000Z</time>
</trkpt>
<trkpt lat="41.7927317" lon="13.7787467">
<ele>1182.87</ele>
<time>2024-08-17T08:17:27.000Z</time>
</trkpt>
<trkpt lat="41.7925533" lon="13.7786733">
<ele>1181.46</ele>
<time>2024-08-17T08:17:34.000Z</time>
</trkpt>
<trkpt lat="41.7923650" lon="13.7786250">
<ele>1182.28</ele>
<time>2024-08-17T08:17:42.000Z</time>
</trkpt>
<trkpt lat="41.7921817" lon="13.7785117">
<ele>1182.27</ele>
<time>2024-08-17T08:17:51.000Z</time>
</trkpt>
<trkpt lat="41.7919950" lon="13.7784217">
<ele>1183.06</ele>
<time>2024-08-17T08:18:01.000Z</time>
</trkpt>
<trkpt lat="41.7918050" lon="13.7783750">
<ele>1187.33</ele>
<time>2024-08-17T08:18:13.000Z</time>
</trkpt>
<trkpt lat="41.7916383" lon="13.7782750">
<ele>1188.35</ele>
<time>2024-08-17T08:18:23.000Z</time>
</trkpt>
<trkpt lat="41.7914567" lon="13.7782150">
<ele>1190.34</ele>
<time>2024-08-17T08:18:34.000Z</time>
</trkpt>
<trkpt lat="41.7912850" lon="13.7781400">
<ele>1191.10</ele>
<time>2024-08-17T08:18:45.000Z</time>
</trkpt>
<trkpt lat="41.7910950" lon="13.7780600">
<ele>1192.14</ele>
<time>2024-08-17T08:18:56.000Z</time>
</trkpt>
<trkpt lat="41.7909183" lon="13.7779667">
<ele>1190.79</ele>
<time>2024-08-17T08:19:06.000Z</time>
</trkpt>
<trkpt lat="41.7907500" lon="13.7778617">
<ele>1191.53</ele>
<time>2024-08-17T08:19:16.000Z</time>
</trkpt>
<trkpt lat="41.7905867" lon="13.7777583">
<ele>1194.68</ele>
<time>2024-08-17T08:19:26.000Z</time>
</trkpt>
<trkpt lat="41.7903983" lon="13.7777083">
<ele>1198.18</ele>
<time>2024-08-17T08:19:38.000Z</time>
</trkpt>
<trkpt lat="41.7902150" lon="13.7776300">
<ele>1199.71</ele>
<time>2024-08-17T08:19:50.000Z</time>
</trkpt>
<trkpt lat="41.7900450" lon="13.7775200">
<ele>1200.97</ele>
<time>2024-08-17T08:20:02.000Z</time>
</trkpt>
<trkpt lat="41.7899083" lon="13.7773383">
<ele>1208.19</ele>
<time>2024-08-17T08:20:17.000Z</time>
</trkpt>
<trkpt lat="41.7897817" lon="13.7771617">
<ele>1210.57</ele>
<time>2024-08-17T08:20:30.000Z</time>
</trkpt>
<trkpt lat="41.7896700" lon="13.7769517">
<ele>1213.57</ele>
<time>2024-08-17T08:20:42.000Z</time>
</trkpt>
<trkpt lat="41.7895533" lon="13.7767633">
<ele>1213.50</ele>
<time>2024-08-17T08:20:54.000Z</time>
</trkpt>
<trkpt lat="41.7894617" lon="13.7765400">
<ele>1211.97</ele>
<time>2024-08-17T08:21:06.000Z</time>
</trkpt>
<trkpt lat="41.7893483" lon="13.7763517">
<ele>1212.55</ele>
<time>2024-08-17T08:21:20.000Z</time>
</trkpt>
<trkpt lat="41.7892333" lon="13.7761550">
<ele>1216.44</ele>
<time>2024-08-17T08:21:33.000Z</time>
</trkpt>
<trkpt lat="41.7891683" lon="13.7759167">
<ele>1221.72</ele>
<time>2024-08-17T08:21:52.000Z</time>
</trkpt>
<trkpt lat="41.7891683" lon="13.7756700">
<ele>1223.26</ele>
<time>2024-08-17T08:22:03.000Z</time>
</trkpt>
<trkpt lat="41.7891500" lon="13.7754117">
<ele>1226.24</ele>
<time>2024-08-17T08:22:20.000Z</time>
</trkpt>
<trkpt lat="41.7891017" lon="13.7751717">
<ele>1230.45</ele>
<time>2024-08-17T08:22:35.000Z</time>
</trkpt>
<trkpt lat="41.7889867" lon="13.7749650">
<ele>1234.56</ele>
<time>2024-08-17T08:22:50.000Z</time>
</trkpt>
<trkpt lat="41.7888383" lon="13.7748000">
<ele>1236.99</ele>
<time>2024-08-17T08:23:02.000Z</time>
</trkpt>
<trkpt lat="41.7886667" lon="13.7747000">
<ele>1240.09</ele>
<time>2024-08-17T08:23:13.000Z</time>
</trkpt>
<trkpt lat="41.7885317" lon="13.7745133">
<ele>1239.76</ele>
<time>2024-08-17T08:23:24.000Z</time>
</trkpt>
<trkpt lat="41.7883817" lon="13.7743700">
<ele>1240.58</ele>
<time>2024-08-17T08:23:34.000Z</time>
</trkpt>
<trkpt lat="41.7882333" lon="13.7742200">
<ele>1241.44</ele>
<time>2024-08-17T08:23:45.000Z</time>
</trkpt>
<trkpt lat="41.7881283" lon="13.7740133">
<ele>1242.31</ele>
<time>2024-08-17T08:23:55.000Z</time>
</trkpt>
<trkpt lat="41.7879933" lon="13.7738450">
<ele>1236.77</ele>
<time>2024-08-17T08:24:07.000Z</time>
</trkpt>
<trkpt lat="41.7878633" lon="13.7736700">
<ele>1232.31</ele>
<time>2024-08-17T08:24:19.000Z</time>
</trkpt>
<trkpt lat="41.7876967" lon="13.7735633">
<ele>1231.48</ele>
<time>2024-08-17T08:24:31.000Z</time>
</trkpt>
<trkpt lat="41.7875617" lon="13.7733850">
<ele>1234.09</ele>
<time>2024-08-17T08:24:43.000Z</time>
</trkpt>
<trkpt lat="41.7875267" lon="13.7731450">
<ele>1242.92</ele>
<time>2024-08-17T08:24:57.000Z</time>
</trkpt>
<trkpt lat="41.7874433" lon="13.7729200">
<ele>1247.46</ele>
<time>2024-08-17T08:25:12.000Z</time>
</trkpt>
<trkpt lat="41.7873083" lon="13.7727300">
<ele>1245.03</ele>
<time>2024-08-17T08:25:24.000Z</time>
</trkpt>
<trkpt lat="41.7871683" lon="13.7725617">
<ele>1245.16</ele>
<time>2024-08-17T08:25:39.000Z</time>
</trkpt>
<trkpt lat="41.7870600" lon="13.7723500">
<ele>1248.14</ele>
<time>2024-08-17T08:25:54.000Z</time>
</trkpt>
<trkpt lat="41.7869267" lon="13.7721783">
<ele>1251.84</ele>
<time>2024-08-17T08:26:06.000Z</time>
</trkpt>
<trkpt lat="41.7868467" lon="13.7719517">
<ele>1251.54</ele>
<time>2024-08-17T08:26:18.000Z</time>
</trkpt>
<trkpt lat="41.7868417" lon="13.7717067">
<ele>1253.71</ele>
<time>2024-08-17T08:26:31.000Z</time>
</trkpt>
<trkpt lat="41.7868450" lon="13.7714500">
<ele>1252.76</ele>
<time>2024-08-17T08:26:43.000Z</time>
</trkpt>
<trkpt lat="41.7867500" lon="13.7712417">
<ele>1254.87</ele>
<time>2024-08-17T08:26:57.000Z</time>
</trkpt>
<trkpt lat="41.7866950" lon="13.7710017">
<ele>1259.39</ele>
<time>2024-08-17T08:27:13.000Z</time>
</trkpt>
<trkpt lat="41.7866600" lon="13.7707617">
<ele>1272.95</ele>
<time>2024-08-17T08:27:27.000Z</time>
</trkpt>
<trkpt lat="41.7866283" lon="13.7705117">
<ele>1275.84</ele>
<time>2024-08-17T08:27:41.000Z</time>
</trkpt>
<trkpt lat="41.7866333" lon="13.7702533">
<ele>1273.40</ele>
<time>2024-08-17T08:27:53.000Z</time>
</trkpt>
<trkpt lat="41.7867050" lon="13.7700217">
<ele>1270.48</ele>
<time>2024-08-17T08:28:03.000Z</time>
</trkpt>
<trkpt lat="41.7867833" lon="13.7697900">
<ele>1265.49</ele>
<time>2024-08-17T08:28:14.000Z</time>
</trkpt>
<trkpt lat="41.7868650" lon="13.7695617">
<ele>1264.23</ele>
<time>2024-08-17T08:28:27.000Z</time>
</trkpt>
<trkpt lat="41.7869067" lon="13.7693100">
<ele>1264.67</ele>
<time>2024-08-17T08:28:41.000Z</time>
</trkpt>
<trkpt lat="41.7869517" lon="13.7690633">
<ele>1268.34</ele>
<time>2024-08-17T08:28:54.000Z</time>
</trkpt>
<trkpt lat="41.7869850" lon="13.7688217">
<ele>1269.16</ele>
<time>2024-08-17T08:29:07.000Z</time>
</trkpt>
<trkpt lat="41.7870717" lon="13.7686017">
<ele>1264.32</ele>
<time>2024-08-17T08:29:19.000Z</time>
</trkpt>
<trkpt lat="41.7871733" lon="13.7684000">
<ele>1263.61</ele>
<time>2024-08-17T08:29:31.000Z</time>
</trkpt>
<trkpt lat="41.7872933" lon="13.7682117">
<ele>1268.58</ele>
<time>2024-08-17T08:29:46.000Z</time>
</trkpt>
<trkpt lat="41.7873233" lon="13.7679667">
<ele>1275.85</ele>
<time>2024-08-17T08:30:46.000Z</time>
</trkpt>
<trkpt lat="41.7873633" lon="13.7677167">
<ele>1281.12</ele>
<time>2024-08-17T08:31:20.000Z</time>
</trkpt>
<trkpt lat="41.7873033" lon="13.7674817">
<ele>1284.74</ele>
<time>2024-08-17T08:31:31.000Z</time>
</trkpt>
<trkpt lat="41.7871667" lon="13.7676450">
<ele>1292.97</ele>
<time>2024-08-17T08:31:49.000Z</time>
</trkpt>
<trkpt lat="41.7870350" lon="13.7678283">
<ele>1295.20</ele>
<time>2024-08-17T08:32:02.000Z</time>
</trkpt>
<trkpt lat="41.7869467" lon="13.7680467">
<ele>1295.56</ele>
<time>2024-08-17T08:32:14.000Z</time>
</trkpt>
<trkpt lat="41.7868483" lon="13.7682517">
<ele>1288.18</ele>
<time>2024-08-17T08:32:32.000Z</time>
</trkpt>
<trkpt lat="41.7867250" lon="13.7684433">
<ele>1288.48</ele>
<time>2024-08-17T08:32:46.000Z</time>
</trkpt>
<trkpt lat="41.7866133" lon="13.7686600">
<ele>1290.54</ele>
<time>2024-08-17T08:32:57.000Z</time>
</trkpt>
<trkpt lat="41.7864850" lon="13.7688367">
<ele>1294.64</ele>
<time>2024-08-17T08:33:35.000Z</time>
</trkpt>
<trkpt lat="41.7863950" lon="13.7690633">
<ele>1300.16</ele>
<time>2024-08-17T08:33:45.000Z</time>
</trkpt>
<trkpt lat="41.7863000" lon="13.7692883">
<ele>1295.18</ele>
<time>2024-08-17T08:34:57.000Z</time>
</trkpt>
<trkpt lat="41.7861483" lon="13.7694700">
<ele>1294.79</ele>
<time>2024-08-17T08:35:08.000Z</time>
</trkpt>
<trkpt lat="41.7860217" lon="13.7696517">
<ele>1294.88</ele>
<time>2024-08-17T08:35:17.000Z</time>
</trkpt>
<trkpt lat="41.7859367" lon="13.7698717">
<ele>1298.80</ele>
<time>2024-08-17T08:35:29.000Z</time>
</trkpt>
<trkpt lat="41.7858417" lon="13.7700850">
<ele>1298.45</ele>
<time>2024-08-17T08:35:39.000Z</time>
</trkpt>
<trkpt lat="41.7857633" lon="13.7703200">
<ele>1301.27</ele>
<time>2024-08-17T08:35:50.000Z</time>
</trkpt>
<trkpt lat="41.7857133" lon="13.7705550">
<ele>1305.66</ele>
<time>2024-08-17T08:36:00.000Z</time>
</trkpt>
<trkpt lat="41.7856183" lon="13.7707783">
<ele>1308.57</ele>
<time>2024-08-17T08:36:13.000Z</time>
</trkpt>
<trkpt lat="41.7855450" lon="13.7710067">
<ele>1308.69</ele>
<time>2024-08-17T08:36:24.000Z</time>
</trkpt>
<trkpt lat="41.7854183" lon="13.7712050">
<ele>1307.41</ele>
<time>2024-08-17T08:36:32.000Z</time>
</trkpt>
<trkpt lat="41.7853233" lon="13.7714150">
<ele>1306.00</ele>
<time>2024-08-17T08:36:41.000Z</time>
</trkpt>
<trkpt lat="41.7852183" lon="13.7716167">
<ele>1303.04</ele>
<time>2024-08-17T08:36:53.000Z</time>
</trkpt>
<trkpt lat="41.7851033" lon="13.7718067">
<ele>1301.88</ele>
<time>2024-08-17T08:37:02.000Z</time>
</trkpt>
<trkpt lat="41.7849967" lon="13.7720183">
<ele>1302.27</ele>
<time>2024-08-17T08:37:13.000Z</time>
</trkpt>
<trkpt lat="41.7849167" lon="13.7722350">
<ele>1304.82</ele>
<time>2024-08-17T08:37:23.000Z</time>
</trkpt>
<trkpt lat="41.7847483" lon="13.7721333">
<ele>1316.16</ele>
<time>2024-08-17T08:37:47.000Z</time>
</trkpt>
<trkpt lat="41.7847417" lon="13.7718817">
<ele>1318.66</ele>
<time>2024-08-17T08:38:01.000Z</time>
</trkpt>
<trkpt lat="41.7847850" lon="13.7716300">
<ele>1317.81</ele>
<time>2024-08-17T08:38:14.000Z</time>
</trkpt>
<trkpt lat="41.7847817" lon="13.7713833">
<ele>1320.10</ele>
<time>2024-08-17T08:38:27.000Z</time>
</trkpt>
<trkpt lat="41.7848233" lon="13.7711217">
<ele>1316.73</ele>
<time>2024-08-17T08:38:38.000Z</time>
</trkpt>
<trkpt lat="41.7848733" lon="13.7708817">
<ele>1316.37</ele>
<time>2024-08-17T08:38:55.000Z</time>
</trkpt>
<trkpt lat="41.7848833" lon="13.7706400">
<ele>1318.09</ele>
<time>2024-08-17T08:39:07.000Z</time>
</trkpt>
<trkpt lat="41.7848217" lon="13.7704117">
<ele>1318.42</ele>
<time>2024-08-17T08:39:19.000Z</time>
</trkpt>
<trkpt lat="41.7847750" lon="13.7701767">
<ele>1322.55</ele>
<time>2024-08-17T08:39:32.000Z</time>
</trkpt>
<trkpt lat="41.7847367" lon="13.7699383">
<ele>1325.86</ele>
<time>2024-08-17T08:39:44.000Z</time>
</trkpt>
<trkpt lat="41.7847250" lon="13.7696900">
<ele>1326.38</ele>
<time>2024-08-17T08:39:58.000Z</time>
</trkpt>
<trkpt lat="41.7845433" lon="13.7696883">
<ele>1332.51</ele>
<time>2024-08-17T08:40:16.000Z</time>
</trkpt>
<trkpt lat="41.7844200" lon="13.7698750">
<ele>1340.77</ele>
<time>2024-08-17T08:40:32.000Z</time>
</trkpt>
<trkpt lat="41.7842917" lon="13.7700500">
<ele>1338.36</ele>
<time>2024-08-17T08:40:49.000Z</time>
</trkpt>
<trkpt lat="41.7841567" lon="13.7702167">
<ele>1341.01</ele>
<time>2024-08-17T08:41:03.000Z</time>
</trkpt>
<trkpt lat="41.7840183" lon="13.7703800">
<ele>1342.68</ele>
<time>2024-08-17T08:41:18.000Z</time>
</trkpt>
<trkpt lat="41.7838650" lon="13.7705417">
<ele>1346.68</ele>
<time>2024-08-17T08:41:33.000Z</time>
</trkpt>
<trkpt lat="41.7837200" lon="13.7707017">
<ele>1345.98</ele>
<time>2024-08-17T08:41:44.000Z</time>
</trkpt>
<trkpt lat="41.7835550" lon="13.7708167">
<ele>1341.51</ele>
<time>2024-08-17T08:41:58.000Z</time>
</trkpt>
<trkpt lat="41.7833817" lon="13.7707267">
<ele>1348.29</ele>
<time>2024-08-17T08:42:15.000Z</time>
</trkpt>
<trkpt lat="41.7832067" lon="13.7706233">
<ele>1349.26</ele>
<time>2024-08-17T08:42:28.000Z</time>
</trkpt>
<trkpt lat="41.7830383" lon="13.7707317">
<ele>1349.82</ele>
<time>2024-08-17T08:42:45.000Z</time>
</trkpt>
<trkpt lat="41.7828567" lon="13.7707183">
<ele>1350.72</ele>
<time>2024-08-17T08:42:54.000Z</time>
</trkpt>
<trkpt lat="41.7826850" lon="13.7706050">
<ele>1348.59</ele>
<time>2024-08-17T08:43:02.000Z</time>
</trkpt>
<trkpt lat="41.7825383" lon="13.7704633">
<ele>1344.24</ele>
<time>2024-08-17T08:43:12.000Z</time>
</trkpt>
<trkpt lat="41.7823700" lon="13.7703467">
<ele>1341.88</ele>
<time>2024-08-17T08:43:21.000Z</time>
</trkpt>
<trkpt lat="41.7821700" lon="13.7703717">
<ele>1342.38</ele>
<time>2024-08-17T08:43:30.000Z</time>
</trkpt>
<trkpt lat="41.7819883" lon="13.7703650">
<ele>1346.32</ele>
<time>2024-08-17T08:43:41.000Z</time>
</trkpt>
<trkpt lat="41.7818150" lon="13.7702683">
<ele>1343.63</ele>
<time>2024-08-17T08:43:54.000Z</time>
</trkpt>
<trkpt lat="41.7816217" lon="13.7703083">
<ele>1348.52</ele>
<time>2024-08-17T08:44:07.000Z</time>
</trkpt>
<trkpt lat="41.7814817" lon="13.7704650">
<ele>1356.37</ele>
<time>2024-08-17T08:44:21.000Z</time>
</trkpt>
<trkpt lat="41.7813200" lon="13.7705883">
<ele>1358.06</ele>
<time>2024-08-17T08:44:33.000Z</time>
</trkpt>
<trkpt lat="41.7811383" lon="13.7706283">
<ele>1357.65</ele>
<time>2024-08-17T08:44:43.000Z</time>
</trkpt>
<trkpt lat="41.7809533" lon="13.7705517">
<ele>1355.93</ele>
<time>2024-08-17T08:44:53.000Z</time>
</trkpt>
<trkpt lat="41.7807667" lon="13.7704750">
<ele>1354.22</ele>
<time>2024-08-17T08:45:06.000Z</time>
</trkpt>
<trkpt lat="41.7805950" lon="13.7704017">
<ele>1356.15</ele>
<time>2024-08-17T08:45:18.500Z</time>
</trkpt>
<trkpt lat="41.7804050" lon="13.7703850">
<ele>1358.04</ele>
<time>2024-08-17T08:45:31.000Z</time>
</trkpt>
<trkpt lat="41.7802183" lon="13.7704567">
<ele>1359.53</ele>
<time>2024-08-17T08:45:44.000Z</time>
</trkpt>
<trkpt lat="41.7800433" lon="13.7705550">
<ele>1356.11</ele>
<time>2024-08-17T08:45:57.000Z</time>
</trkpt>
<trkpt lat="41.7798617" lon="13.7706233">
<ele>1351.82</ele>
<time>2024-08-17T08:46:03.000Z</time>
</trkpt>
<trkpt lat="41.7796833" lon="13.7706800">
<ele>1352.67</ele>
<time>2024-08-17T08:46:12.000Z</time>
</trkpt>
<trkpt lat="41.7795133" lon="13.7708150">
<ele>1353.84</ele>
<time>2024-08-17T08:46:21.000Z</time>
</trkpt>
<trkpt lat="41.7794117" lon="13.7710233">
<ele>1358.39</ele>
<time>2024-08-17T08:46:30.000Z</time>
</trkpt>
<trkpt lat="41.7793483" lon="13.7712567">
<ele>1355.04</ele>
<time>2024-08-17T08:46:38.000Z</time>
</trkpt>
<trkpt lat="41.7793350" lon="13.7715033">
<ele>1354.54</ele>
<time>2024-08-17T08:46:49.000Z</time>
</trkpt>
<trkpt lat="41.7792567" lon="13.7717383">
<ele>1356.05</ele>
<time>2024-08-17T08:46:59.000Z</time>
</trkpt>
<trkpt lat="41.7790517" lon="13.7717483">
<ele>1359.77</ele>
<time>2024-08-17T08:47:10.000Z</time>
</trkpt>
<trkpt lat="41.7788883" lon="13.7716217">
<ele>1361.92</ele>
<time>2024-08-17T08:47:21.000Z</time>
</trkpt>
<trkpt lat="41.7787133" lon="13.7715133">
<ele>1364.17</ele>
<time>2024-08-17T08:47:29.000Z</time>
</trkpt>
<trkpt lat="41.7785717" lon="13.7713617">
<ele>1362.82</ele>
<time>2024-08-17T08:47:37.000Z</time>
</trkpt>
<trkpt lat="41.7784133" lon="13.7712267">
<ele>1360.57</ele>
<time>2024-08-17T08:47:45.000Z</time>
</trkpt>
<trkpt lat="41.7782567" lon="13.7711067">
<ele>1357.96</ele>
<time>2024-08-17T08:47:53.000Z</time>
</trkpt>
<trkpt lat="41.7780783" lon="13.7710367">
<ele>1361.75</ele>
<time>2024-08-17T08:48:01.000Z</time>
</trkpt>
<trkpt lat="41.7778983" lon="13.7709783">
<ele>1365.34</ele>
<time>2024-08-17T08:48:09.000Z</time>
</trkpt>
<trkpt lat="41.7777217" lon="13.7708717">
<ele>1368.48</ele>
<time>2024-08-17T08:48:18.000Z</time>
</trkpt>
<trkpt lat="41.7775417" lon="13.7707883">
<ele>1373.26</ele>
<time>2024-08-17T08:48:26.000Z</time>
</trkpt>
<trkpt lat="41.7773517" lon="13.7707400">
<ele>1376.71</ele>
<time>2024-08-17T08:48:33.000Z</time>
</trkpt>
<trkpt lat="41.7771700" lon="13.7707583">
<ele>1375.99</ele>
<time>2024-08-17T08:48:41.000Z</time>
</trkpt>
<trkpt lat="41.7770033" lon="13.7708817">
<ele>1373.67</ele>
<time>2024-08-17T08:48:47.000Z</time>
</trkpt>
<trkpt lat="41.7768350" lon="13.7710150">
<ele>1370.81</ele>
<time>2024-08-17T08:48:55.000Z</time>
</trkpt>
<trkpt lat="41.7766917" lon="13.7711650">
<ele>1371.92</ele>
<time>2024-08-17T08:49:03.000Z</time>
</trkpt>
<trkpt lat="41.7765383" lon="13.7713283">
<ele>1371.71</ele>
<time>2024-08-17T08:49:13.000Z</time>
</trkpt>
<trkpt lat="41.7763717" lon="13.7714400">
<ele>1370.77</ele>
<time>2024-08-17T08:49:25.000Z</time>
</trkpt>
<trkpt lat="41.7762083" lon="13.7715567">
<ele>1370.36</ele>
<time>2024-08-17T08:49:36.000Z</time>
</trkpt>
<trkpt lat="41.7760183" lon="13.7715683">
<ele>1374.28</ele>
<time>2024-08-17T08:49:47.000Z</time>
</trkpt>
<trkpt lat="41.7758433" lon="13.7715083">
<ele>1373.98</ele>
<time>2024-08-17T08:49:59.000Z</time>
</trkpt>
<trkpt lat="41.7756450" lon="13.7715583">
<ele>1372.84</ele>
<time>2024-08-17T08:50:15.000Z</time>
</trkpt>
<trkpt lat="41.7754583" lon="13.7715400">
<ele>1371.67</ele>
<time>2024-08-17T08:50:26.000Z</time>
</trkpt>
<trkpt lat="41.7752783" lon="13.7715250">
<ele>1372.67</ele>
<time>2024-08-17T08:50:35.000Z</time>
</trkpt>
<trkpt lat="41.7750833" lon="13.7715017">
<ele>1370.46</ele>
<time>2024-08-17T08:50:43.000Z</time>
</trkpt>
<trkpt lat="41.7748967" lon="13.7715050">
<ele>1377.45</ele>
<time>2024-08-17T08:50:53.000Z</time>
</trkpt>
<trkpt lat="41.7747067" lon="13.7714550">
<ele>1381.64</ele>
<time>2024-08-17T08:51:03.000Z</time>
</trkpt>
<trkpt lat="41.7745750" lon="13.7712667">
<ele>1384.20</ele>
<time>2024-08-17T08:51:13.000Z</time>
</trkpt>
<trkpt lat="41.7745083" lon="13.7710150">
<ele>1379.30</ele>
<time>2024-08-17T08:51:22.000Z</time>
</trkpt>
<trkpt lat="41.7744833" lon="13.7707533">
<ele>1376.84</ele>
<time>2024-08-17T08:51:30.000Z</time>
</trkpt>
<trkpt lat="41.7744850" lon="13.7705067">
<ele>1375.94</ele>
<time>2024-08-17T08:51:42.000Z</time>
</trkpt>
<trkpt lat="41.7745500" lon="13.7702767">
<ele>1378.59</ele>
<time>2024-08-17T08:51:55.000Z</time>
</trkpt>
<trkpt lat="41.7745383" lon="13.7700250">
<ele>1387.17</ele>
<time>2024-08-17T08:52:14.000Z</time>
</trkpt>
<trkpt lat="41.7744467" lon="13.7697983">
<ele>1391.07</ele>
<time>2024-08-17T08:52:26.000Z</time>
</trkpt>
<trkpt lat="41.7742783" lon="13.7696683">
<ele>1392.11</ele>
<time>2024-08-17T08:52:38.000Z</time>
</trkpt>
<trkpt lat="41.7740883" lon="13.7696967">
<ele>1396.48</ele>
<time>2024-08-17T08:52:56.000Z</time>
</trkpt>
<trkpt lat="41.7739450" lon="13.7695450">
<ele>1398.98</ele>
<time>2024-08-17T08:53:11.000Z</time>
</trkpt>
<trkpt lat="41.7738483" lon="13.7693300">
<ele>1398.52</ele>
<time>2024-08-17T08:53:23.000Z</time>
</trkpt>
<trkpt lat="41.7736983" lon="13.7691717">
<ele>1399.43</ele>
<time>2024-08-17T08:53:37.000Z</time>
</trkpt>
<trkpt lat="41.7736533" lon="13.7689067">
<ele>1397.36</ele>
<time>2024-08-17T08:53:50.000Z</time>
</trkpt>
<trkpt lat="41.7736217" lon="13.7686633">
<ele>1394.45</ele>
<time>2024-08-17T08:54:04.000Z</time>
</trkpt>
<trkpt lat="41.7734733" lon="13.7685033">
<ele>1400.70</ele>
<time>2024-08-17T08:54:16.000Z</time>
</trkpt>
<trkpt lat="41.7733017" lon="13.7683983">
<ele>1407.34</ele>
<time>2024-08-17T08:54:33.000Z</time>
</trkpt>
<trkpt lat="41.7731517" lon="13.7682333">
<ele>1409.13</ele>
<time>2024-08-17T08:54:47.000Z</time>
</trkpt>
<trkpt lat="41.7729750" lon="13.7681667">
<ele>1411.57</ele>
<time>2024-08-17T08:55:07.000Z</time>
</trkpt>
<trkpt lat="41.7727917" lon="13.7682150">
<ele>1412.97</ele>
<time>2024-08-17T08:55:19.000Z</time>
</trkpt>
<trkpt lat="41.7725933" lon="13.7682333">
<ele>1413.55</ele>
<time>2024-08-17T08:55:29.000Z</time>
</trkpt>
<trkpt lat="41.7724650" lon="13.7684067">
<ele>1415.48</ele>
<time>2024-08-17T08:55:44.000Z</time>
</trkpt>
<trkpt lat="41.7723183" lon="13.7685717">
<ele>1422.38</ele>
<time>2024-08-17T08:56:00.000Z</time>
</trkpt>
<trkpt lat="41.7721317" lon="13.7686117">
<ele>1425.17</ele>
<time>2024-08-17T08:56:11.000Z</time>
</trkpt>
<trkpt lat="41.7719667" lon="13.7687417">
<ele>1427.64</ele>
<time>2024-08-17T08:56:21.000Z</time>
</trkpt>
<trkpt lat="41.7717950" lon="13.7688500">
<ele>1430.42</ele>
<time>2024-08-17T08:56:36.000Z</time>
</trkpt>
<trkpt lat="41.7716700" lon="13.7686650">
<ele>1424.46</ele>
<time>2024-08-17T08:57:50.000Z</time>
</trkpt>
<trkpt lat="41.7717733" lon="13.7684583">
<ele>1420.33</ele>
<time>2024-08-17T08:58:03.000Z</time>
</trkpt>
<trkpt lat="41.7719400" lon="13.7683267">
<ele>1423.45</ele>
<time>2024-08-17T08:58:16.000Z</time>
</trkpt>
<trkpt lat="41.7721150" lon="13.7682500">
<ele>1424.95</ele>
<time>2024-08-17T08:58:25.000Z</time>
</trkpt>
<trkpt lat="41.7721767" lon="13.7680217">
<ele>1422.28</ele>
<time>2024-08-17T08:58:41.000Z</time>
</trkpt>
<trkpt lat="41.7721533" lon="13.7677767">
<ele>1426.16</ele>
<time>2024-08-17T08:58:55.000Z</time>
</trkpt>
<trkpt lat="41.7721600" lon="13.7675283">
<ele>1432.24</ele>
<time>2024-08-17T08:59:07.000Z</time>
</trkpt>
<trkpt lat="41.7720217" lon="13.7673667">
<ele>1437.96</ele>
<time>2024-08-17T08:59:18.000Z</time>
</trkpt>
<trkpt lat="41.7718700" lon="13.7675050">
<ele>1443.51</ele>
<time>2024-08-17T08:59:30.000Z</time>
</trkpt>
<trkpt lat="41.7717433" lon="13.7676783">
<ele>1447.80</ele>
<time>2024-08-17T08:59:41.000Z</time>
</trkpt>
<trkpt lat="41.7716517" lon="13.7678967">
<ele>1448.36</ele>
<time>2024-08-17T08:59:50.000Z</time>
</trkpt>
<trkpt lat="41.7715683" lon="13.7681117">
<ele>1444.49</ele>
<time>2024-08-17T09:00:06.000Z</time>
</trkpt>
<trkpt lat="41.7713817" lon="13.7681900">
<ele>1441.50</ele>
<time>2024-08-17T09:00:17.000Z</time>
</trkpt>
<trkpt lat="41.7711950" lon="13.7682783">
<ele>1439.55</ele>
<time>2024-08-17T09:00:25.000Z</time>
</trkpt>
<trkpt lat="41.7710067" lon="13.7683133">
<ele>1436.99</ele>
<time>2024-08-17T09:00:36.000Z</time>
</trkpt>
<trkpt lat="41.7708533" lon="13.7684550">
<ele>1443.24</ele>
<time>2024-08-17T09:00:48.000Z</time>
</trkpt>
<trkpt lat="41.7708133" lon="13.7686933">
<ele>1446.78</ele>
<time>2024-08-17T09:01:00.000Z</time>
</trkpt>
<trkpt lat="41.7706967" lon="13.7688883">
<ele>1443.56</ele>
<time>2024-08-17T09:01:11.000Z</time>
</trkpt>
<trkpt lat="41.7705500" lon="13.7690433">
<ele>1440.49</ele>
<time>2024-08-17T09:01:24.000Z</time>
</trkpt>
<trkpt lat="41.7703683" lon="13.7691767">
<ele>1442.88</ele>
<time>2024-08-17T09:01:33.000Z</time>
</trkpt>
<trkpt lat="41.7702017" lon="13.7692700">
<ele>1441.71</ele>
<time>2024-08-17T09:01:39.000Z</time>
</trkpt>
<trkpt lat="41.7700133" lon="13.7692617">
<ele>1437.97</ele>
<time>2024-08-17T09:01:48.000Z</time>
</trkpt>
<trkpt lat="41.7698333" lon="13.7693467">
<ele>1438.89</ele>
<time>2024-08-17T09:01:56.000Z</time>
</trkpt>
<trkpt lat="41.7696500" lon="13.7694200">
<ele>1442.08</ele>
<time>2024-08-17T09:02:06.000Z</time>
</trkpt>
<trkpt lat="41.7694600" lon="13.7693717">
<ele>1437.51</ele>
<time>2024-08-17T09:02:15.000Z</time>
</trkpt>
<trkpt lat="41.7692700" lon="13.7693183">
<ele>1437.96</ele>
<time>2024-08-17T09:02:22.000Z</time>
</trkpt>
<trkpt lat="41.7690867" lon="13.7692283">
<ele>1439.00</ele>
<time>2024-08-17T09:02:28.000Z</time>
</trkpt>
<trkpt lat="41.7689067" lon="13.7691333">
<ele>1441.42</ele>
<time>2024-08-17T09:02:39.000Z</time>
</trkpt>
<trkpt lat="41.7687233" lon="13.7690183">
<ele>1441.27</ele>
<time>2024-08-17T09:02:51.000Z</time>
</trkpt>
<trkpt lat="41.7685600" lon="13.7688817">
<ele>1440.71</ele>
<time>2024-08-17T09:03:02.000Z</time>
</trkpt>
<trkpt lat="41.7684117" lon="13.7687283">
<ele>1444.55</ele>
<time>2024-08-17T09:03:15.000Z</time>
</trkpt>
<trkpt lat="41.7682933" lon="13.7685333">
<ele>1449.84</ele>
<time>2024-08-17T09:03:50.000Z</time>
</trkpt>
<trkpt lat="41.7681717" lon="13.7683433">
<ele>1453.16</ele>
<time>2024-08-17T09:04:03.000Z</time>
</trkpt>
<trkpt lat="41.7680600" lon="13.7681200">
<ele>1452.49</ele>
<time>2024-08-17T09:04:15.000Z</time>
</trkpt>
<trkpt lat="41.7680050" lon="13.7678733">
<ele>1451.70</ele>
<time>2024-08-17T09:04:24.000Z</time>
</trkpt>
<trkpt lat="41.7679117" lon="13.7676667">
<ele>1452.09</ele>
<time>2024-08-17T09:04:32.000Z</time>
</trkpt>
<trkpt lat="41.7677750" lon="13.7674783">
<ele>1460.23</ele>
<time>2024-08-17T09:04:44.000Z</time>
</trkpt>
<trkpt lat="41.7676133" lon="13.7673550">
<ele>1462.78</ele>
<time>2024-08-17T09:04:53.000Z</time>
</trkpt>
<trkpt lat="41.7674683" lon="13.7671833">
<ele>1461.67</ele>
<time>2024-08-17T09:05:03.000Z</time>
</trkpt>
<trkpt lat="41.7673150" lon="13.7670483">
<ele>1458.62</ele>
<time>2024-08-17T09:05:12.000Z</time>
</trkpt>
<trkpt lat="41.7671550" lon="13.7669333">
<ele>1459.93</ele>
<time>2024-08-17T09:05:23.000Z</time>
</trkpt>
<trkpt lat="41.7670550" lon="13.7667233">
<ele>1457.91</ele>
<time>2024-08-17T09:05:34.000Z</time>
</trkpt>
<trkpt lat="41.7669317" lon="13.7665333">
<ele>1455.66</ele>
<time>2024-08-17T09:05:46.000Z</time>
</trkpt>
<trkpt lat="41.7668317" lon="13.7667450">
<ele>1463.51</ele>
<time>2024-08-17T09:06:07.000Z</time>
</trkpt>
<trkpt lat="41.7669767" lon="13.7669017">
<ele>1467.16</ele>
<time>2024-08-17T09:06:22.000Z</time>
</trkpt>
<trkpt lat="41.7671100" lon="13.7670900">
<ele>1470.62</ele>
<time>2024-08-17T09:06:34.000Z</time>
</trkpt>
<trkpt lat="41.7672600" lon="13.7672517">
<ele>1472.88</ele>
<time>2024-08-17T09:06:47.000Z</time>
</trkpt>
<trkpt lat="41.7672233" lon="13.7675017">
<ele>1475.94</ele>
<time>2024-08-17T09:07:04.000Z</time>
</trkpt>
<trkpt lat="41.7670300" lon="13.7675250">
<ele>1473.78</ele>
<time>2024-08-17T09:07:16.000Z</time>
</trkpt>
<trkpt lat="41.7668567" lon="13.7674500">
<ele>1476.40</ele>
<time>2024-08-17T09:07:30.000Z</time>
</trkpt>
<trkpt lat="41.7666850" lon="13.7673550">
<ele>1479.15</ele>
<time>2024-08-17T09:07:44.000Z</time>
</trkpt>
<trkpt lat="41.7665217" lon="13.7672450">
<ele>1481.95</ele>
<time>2024-08-17T09:07:57.000Z</time>
</trkpt>
<trkpt lat="41.7663567" lon="13.7671300">
<ele>1482.02</ele>
<time>2024-08-17T09:08:09.000Z</time>
</trkpt>
<trkpt lat="41.7662133" lon="13.7669717">
<ele>1484.10</ele>
<time>2024-08-17T09:08:20.000Z</time>
</trkpt>
<trkpt lat="41.7660600" lon="13.7668383">
<ele>1481.40</ele>
<time>2024-08-17T09:08:31.000Z</time>
</trkpt>
<trkpt lat="41.7659333" lon="13.7666483">
<ele>1476.40</ele>
<time>2024-08-17T09:08:42.000Z</time>
</trkpt>
<trkpt lat="41.7657900" lon="13.7664700">
<ele>1482.06</ele>
<time>2024-08-17T09:08:57.000Z</time>
</trkpt>
<trkpt lat="41.7656500" lon="13.7663050">
<ele>1487.20</ele>
<time>2024-08-17T09:09:11.000Z</time>
</trkpt>
<trkpt lat="41.7655467" lon="13.7660750">
<ele>1492.53</ele>
<time>2024-08-17T09:09:23.000Z</time>
</trkpt>
<trkpt lat="41.7654217" lon="13.7658950">
<ele>1496.64</ele>
<time>2024-08-17T09:09:36.000Z</time>
</trkpt>
<trkpt lat="41.7653367" lon="13.7656617">
<ele>1496.79</ele>
<time>2024-08-17T09:09:51.000Z</time>
</trkpt>
<trkpt lat="41.7652667" lon="13.7654233">
<ele>1495.64</ele>
<time>2024-08-17T09:10:02.000Z</time>
</trkpt>
<trkpt lat="41.7652783" lon="13.7651750">
<ele>1496.95</ele>
<time>2024-08-17T09:10:17.000Z</time>
</trkpt>
<trkpt lat="41.7653333" lon="13.7649400">
<ele>1492.38</ele>
<time>2024-08-17T09:10:27.000Z</time>
</trkpt>
<trkpt lat="41.7654550" lon="13.7647367">
<ele>1490.61</ele>
<time>2024-08-17T09:10:41.000Z</time>
</trkpt>
<trkpt lat="41.7656150" lon="13.7646117">
<ele>1491.99</ele>
<time>2024-08-17T09:10:57.000Z</time>
</trkpt>
<trkpt lat="41.7657950" lon="13.7645917">
<ele>1489.70</ele>
<time>2024-08-17T09:12:40.000Z</time>
</trkpt>
<trkpt lat="41.7659683" lon="13.7646717">
<ele>1496.60</ele>
<time>2024-08-17T09:12:54.000Z</time>
</trkpt>
<trkpt lat="41.7661500" lon="13.7647250">
<ele>1496.35</ele>
<time>2024-08-17T09:13:07.000Z</time>
</trkpt>
<trkpt lat="41.7663183" lon="13.7648217">
<ele>1503.47</ele>
<time>2024-08-17T09:13:21.000Z</time>
</trkpt>
<trkpt lat="41.7661850" lon="13.7646467">
<ele>1502.81</ele>
<time>2024-08-17T09:13:58.000Z</time>
</trkpt>
<trkpt lat="41.7659967" lon="13.7645767">
<ele>1505.81</ele>
<time>2024-08-17T09:14:09.000Z</time>
</trkpt>
<trkpt lat="41.7658467" lon="13.7644183">
<ele>1506.41</ele>
<time>2024-08-17T09:14:22.000Z</time>
</trkpt>
<trkpt lat="41.7657017" lon="13.7642550">
<ele>1505.36</ele>
<time>2024-08-17T09:14:33.000Z</time>
</trkpt>
<trkpt lat="41.7655183" lon="13.7642200">
<ele>1511.60</ele>
<time>2024-08-17T09:14:48.000Z</time>
</trkpt>
<trkpt lat="41.7653367" lon="13.7641783">
<ele>1510.64</ele>
<time>2024-08-17T09:14:58.000Z</time>
</trkpt>
<trkpt lat="41.7651550" lon="13.7640850">
<ele>1509.30</ele>
<time>2024-08-17T09:15:10.000Z</time>
</trkpt>
<trkpt lat="41.7649750" lon="13.7641650">
<ele>1518.53</ele>
<time>2024-08-17T09:15:30.000Z</time>
</trkpt>
<trkpt lat="41.7649900" lon="13.7639200">
<ele>1517.99</ele>
<time>2024-08-17T09:15:50.000Z</time>
</trkpt>
<trkpt lat="41.7650650" lon="13.7636900">
<ele>1513.65</ele>
<time>2024-08-17T09:16:08.000Z</time>
</trkpt>
<trkpt lat="41.7651517" lon="13.7634550">
<ele>1510.18</ele>
<time>2024-08-17T09:16:19.000Z</time>
</trkpt>
<trkpt lat="41.7652050" lon="13.7632050">
<ele>1509.51</ele>
<time>2024-08-17T09:16:33.000Z</time>
</trkpt>
<trkpt lat="41.7653683" lon="13.7630800">
<ele>1516.94</ele>
<time>2024-08-17T09:16:48.000Z</time>
</trkpt>
<trkpt lat="41.7655483" lon="13.7631467">
<ele>1526.09</ele>
<time>2024-08-17T09:17:02.000Z</time>
</trkpt>
<trkpt lat="41.7656450" lon="13.7634667">
<ele>1537.97</ele>
<time>2024-08-17T09:17:10.000Z</time>
</trkpt>
<trkpt lat="41.7656550" lon="13.7637400">
<ele>1540.19</ele>
<time>2024-08-17T09:17:11.000Z</time>
</trkpt>
<trkpt lat="41.7655717" lon="13.7640200">
<ele>1541.35</ele>
<time>2024-08-17T09:17:12.000Z</time>
</trkpt>
<trkpt lat="41.7657133" lon="13.7637567">
<ele>1549.46</ele>
<time>2024-08-17T09:17:20.000Z</time>
</trkpt>
<trkpt lat="41.7658450" lon="13.7635300">
<ele>1537.31</ele>
<time>2024-08-17T09:17:24.000Z</time>
</trkpt>
<trkpt lat="41.7659450" lon="13.7637450">
<ele>1537.56</ele>
<time>2024-08-17T09:17:42.000Z</time>
</trkpt>
<trkpt lat="41.7659167" lon="13.7635050">
<ele>1528.13</ele>
<time>2024-08-17T09:18:15.000Z</time>
</trkpt>
<trkpt lat="41.7658550" lon="13.7632783">
<ele>1529.95</ele>
<time>2024-08-17T09:18:27.000Z</time>
</trkpt>
<trkpt lat="41.7657750" lon="13.7630483">
<ele>1530.05</ele>
<time>2024-08-17T09:18:41.000Z</time>
</trkpt>
<trkpt lat="41.7656733" lon="13.7628267">
<ele>1530.14</ele>
<time>2024-08-17T09:18:54.000Z</time>
</trkpt>
<trkpt lat="41.7655117" lon="13.7627150">
<ele>1534.89</ele>
<time>2024-08-17T09:19:08.000Z</time>
</trkpt>
<trkpt lat="41.7653583" lon="13.7625783">
<ele>1537.67</ele>
<time>2024-08-17T09:19:23.000Z</time>
</trkpt>
<trkpt lat="41.7651833" lon="13.7624767">
<ele>1541.01</ele>
<time>2024-08-17T09:19:40.000Z</time>
</trkpt>
<trkpt lat="41.7649950" lon="13.7624833">
<ele>1546.35</ele>
<time>2024-08-17T09:19:53.000Z</time>
</trkpt>
<trkpt lat="41.7648083" lon="13.7624317">
<ele>1545.69</ele>
<time>2024-08-17T09:20:05.000Z</time>
</trkpt>
<trkpt lat="41.7646200" lon="13.7624083">
<ele>1543.88</ele>
<time>2024-08-17T09:20:17.000Z</time>
</trkpt>
<trkpt lat="41.7644517" lon="13.7625117">
<ele>1543.98</ele>
<time>2024-08-17T09:20:28.000Z</time>
</trkpt>
<trkpt lat="41.7643700" lon="13.7627283">
<ele>1546.32</ele>
<time>2024-08-17T09:20:42.000Z</time>
</trkpt>
<trkpt lat="41.7642567" lon="13.7629383">
<ele>1544.90</ele>
<time>2024-08-17T09:20:55.000Z</time>
</trkpt>
<trkpt lat="41.7641367" lon="13.7631250">
<ele>1543.61</ele>
<time>2024-08-17T09:21:04.000Z</time>
</trkpt>
<trkpt lat="41.7640300" lon="13.7633383">
<ele>1550.12</ele>
<time>2024-08-17T09:21:17.000Z</time>
</trkpt>
<trkpt lat="41.7639150" lon="13.7635367">
<ele>1553.94</ele>
<time>2024-08-17T09:21:30.000Z</time>
</trkpt>
<trkpt lat="41.7637617" lon="13.7637033">
<ele>1554.85</ele>
<time>2024-08-17T09:21:42.000Z</time>
</trkpt>
<trkpt lat="41.7635817" lon="13.7637850">
<ele>1554.70</ele>
<time>2024-08-17T09:21:52.000Z</time>
</trkpt>
<trkpt lat="41.7635050" lon="13.7640033">
<ele>1559.91</ele>
<time>2024-08-17T09:22:06.000Z</time>
</trkpt>
<trkpt lat="41.7635033" lon="13.7642583">
<ele>1569.15</ele>
<time>2024-08-17T09:22:20.000Z</time>
</trkpt>
<trkpt lat="41.7634883" lon="13.7645050">
<ele>1574.03</ele>
<time>2024-08-17T09:22:33.000Z</time>
</trkpt>
<trkpt lat="41.7634250" lon="13.7647567">
<ele>1569.54</ele>
<time>2024-08-17T09:22:45.000Z</time>
</trkpt>
<trkpt lat="41.7633767" lon="13.7650150">
<ele>1563.54</ele>
<time>2024-08-17T09:22:57.000Z</time>
</trkpt>
<trkpt lat="41.7632367" lon="13.7651883">
<ele>1558.07</ele>
<time>2024-08-17T09:23:09.000Z</time>
</trkpt>
<trkpt lat="41.7630467" lon="13.7652083">
<ele>1549.35</ele>
<time>2024-08-17T09:23:24.000Z</time>
</trkpt>
<trkpt lat="41.7628650" lon="13.7652317">
<ele>1560.34</ele>
<time>2024-08-17T09:23:38.000Z</time>
</trkpt>
<trkpt lat="41.7626767" lon="13.7653350">
<ele>1563.72</ele>
<time>2024-08-17T09:23:48.000Z</time>
</trkpt>
<trkpt lat="41.7625167" lon="13.7654817">
<ele>1563.96</ele>
<time>2024-08-17T09:24:02.000Z</time>
</trkpt>
<trkpt lat="41.7624100" lon="13.7656933">
<ele>1566.23</ele>
<time>2024-08-17T09:24:17.000Z</time>
</trkpt>
<trkpt lat="41.7622550" lon="13.7658500">
<ele>1567.41</ele>
<time>2024-08-17T09:24:28.000Z</time>
</trkpt>
<trkpt lat="41.7620867" lon="13.7659367">
<ele>1558.70</ele>
<time>2024-08-17T09:25:02.000Z</time>
</trkpt>
<trkpt lat="41.7620050" lon="13.7657050">
<ele>1549.03</ele>
<time>2024-08-17T09:26:34.000Z</time>
</trkpt>
<trkpt lat="41.7620867" lon="13.7654850">
<ele>1555.33</ele>
<time>2024-08-17T09:26:47.000Z</time>
</trkpt>
<trkpt lat="41.7622133" lon="13.7653067">
<ele>1556.59</ele>
<time>2024-08-17T09:26:58.000Z</time>
</trkpt>
<trkpt lat="41.7623083" lon="13.7650850">
<ele>1558.42</ele>
<time>2024-08-17T09:27:12.000Z</time>
</trkpt>
<trkpt lat="41.7624217" lon="13.7648917">
<ele>1557.99</ele>
<time>2024-08-17T09:27:24.000Z</time>
</trkpt>
<trkpt lat="41.7626083" lon="13.7647917">
<ele>1561.71</ele>
<time>2024-08-17T09:27:40.000Z</time>
</trkpt>
<trkpt lat="41.7627350" lon="13.7645983">
<ele>1560.79</ele>
<time>2024-08-17T09:27:55.000Z</time>
</trkpt>
<trkpt lat="41.7628000" lon="13.7643733">
<ele>1559.79</ele>
<time>2024-08-17T09:28:05.000Z</time>
</trkpt>
<trkpt lat="41.7628267" lon="13.7641300">
<ele>1561.77</ele>
<time>2024-08-17T09:28:20.000Z</time>
</trkpt>
<trkpt lat="41.7627417" lon="13.7639067">
<ele>1560.61</ele>
<time>2024-08-17T09:28:33.000Z</time>
</trkpt>
<trkpt lat="41.7626317" lon="13.7637017">
<ele>1564.27</ele>
<time>2024-08-17T09:28:47.000Z</time>
</trkpt>
<trkpt lat="41.7625150" lon="13.7635117">
<ele>1566.34</ele>
<time>2024-08-17T09:29:01.000Z</time>
</trkpt>
<trkpt lat="41.7623817" lon="13.7633400">
<ele>1568.42</ele>
<time>2024-08-17T09:29:17.000Z</time>
</trkpt>
<trkpt lat="41.7622850" lon="13.7631233">
<ele>1569.55</ele>
<time>2024-08-17T09:29:30.000Z</time>
</trkpt>
<trkpt lat="41.7622533" lon="13.7628783">
<ele>1575.06</ele>
<time>2024-08-17T09:29:47.000Z</time>
</trkpt>
<trkpt lat="41.7623383" lon="13.7626500">
<ele>1574.82</ele>
<time>2024-08-17T09:29:58.000Z</time>
</trkpt>
<trkpt lat="41.7624450" lon="13.7624500">
<ele>1579.15</ele>
<time>2024-08-17T09:30:13.000Z</time>
</trkpt>
<trkpt lat="41.7622667" lon="13.7625350">
<ele>1586.57</ele>
<time>2024-08-17T09:30:39.000Z</time>
</trkpt>
<trkpt lat="41.7621517" lon="13.7627350">
<ele>1590.20</ele>
<time>2024-08-17T09:30:56.000Z</time>
</trkpt>
<trkpt lat="41.7620233" lon="13.7625650">
<ele>1592.30</ele>
<time>2024-08-17T09:31:26.000Z</time>
</trkpt>
<trkpt lat="41.7621350" lon="13.7623700">
<ele>1587.07</ele>
<time>2024-08-17T09:31:43.000Z</time>
</trkpt>
<trkpt lat="41.7622683" lon="13.7621850">
<ele>1584.17</ele>
<time>2024-08-17T09:31:55.000Z</time>
</trkpt>
<trkpt lat="41.7624217" lon="13.7620167">
<ele>1583.28</ele>
<time>2024-08-17T09:32:07.000Z</time>
</trkpt>
<trkpt lat="41.7625367" lon="13.7618300">
<ele>1580.92</ele>
<time>2024-08-17T09:32:16.000Z</time>
</trkpt>
<trkpt lat="41.7626633" lon="13.7616533">
<ele>1581.78</ele>
<time>2024-08-17T09:32:29.000Z</time>
</trkpt>
<trkpt lat="41.7628133" lon="13.7614833">
<ele>1583.74</ele>
<time>2024-08-17T09:32:43.000Z</time>
</trkpt>
<trkpt lat="41.7629983" lon="13.7614217">
<ele>1587.85</ele>
<time>2024-08-17T09:32:57.000Z</time>
</trkpt>
<trkpt lat="41.7631817" lon="13.7613800">
<ele>1592.85</ele>
<time>2024-08-17T09:33:07.000Z</time>
</trkpt>
<trkpt lat="41.7633383" lon="13.7612350">
<ele>1594.30</ele>
<time>2024-08-17T09:33:20.000Z</time>
</trkpt>
<trkpt lat="41.7634900" lon="13.7610983">
<ele>1591.53</ele>
<time>2024-08-17T09:33:34.000Z</time>
</trkpt>
<trkpt lat="41.7636600" lon="13.7609900">
<ele>1596.97</ele>
<time>2024-08-17T09:33:46.000Z</time>
</trkpt>
<trkpt lat="41.7638317" lon="13.7608767">
<ele>1601.68</ele>
<time>2024-08-17T09:34:00.000Z</time>
</trkpt>
<trkpt lat="41.7639950" lon="13.7607400">
<ele>1602.87</ele>
<time>2024-08-17T09:34:12.000Z</time>
</trkpt>
<trkpt lat="41.7641350" lon="13.7605650">
<ele>1598.78</ele>
<time>2024-08-17T09:34:20.000Z</time>
</trkpt>
<trkpt lat="41.7642950" lon="13.7604250">
<ele>1593.91</ele>
<time>2024-08-17T09:34:30.000Z</time>
</trkpt>
<trkpt lat="41.7644433" lon="13.7602617">
<ele>1591.55</ele>
<time>2024-08-17T09:34:43.000Z</time>
</trkpt>
<trkpt lat="41.7644983" lon="13.7600317">
<ele>1595.25</ele>
<time>2024-08-17T09:34:57.000Z</time>
</trkpt>
<trkpt lat="41.7644033" lon="13.7598067">
<ele>1597.50</ele>
<time>2024-08-17T09:35:10.000Z</time>
</trkpt>
<trkpt lat="41.7643000" lon="13.7595967">
<ele>1595.93</ele>
<time>2024-08-17T09:35:20.000Z</time>
</trkpt>
<extensions>
<om:oruxmapsextensions>
</om:oruxmapsextensions>
</extensions>
</trkseg>
<trkseg>
<trkpt lat="41.7645517" lon="13.7603050">
<ele>1601.34</ele>
<time>2024-08-17T09:45:49.968Z</time>
</trkpt>
<trkpt lat="41.7643733" lon="13.7604033">
<ele>1594.42</ele>
<time>2024-08-17T09:47:42.000Z</time>
</trkpt>
<trkpt lat="41.7641950" lon="13.7605000">
<ele>1596.09</ele>
<time>2024-08-17T09:47:51.000Z</time>
</trkpt>
<trkpt lat="41.7640133" lon="13.7606217">
<ele>1593.36</ele>
<time>2024-08-17T09:47:59.000Z</time>
</trkpt>
<trkpt lat="41.7638567" lon="13.7607450">
<ele>1592.28</ele>
<time>2024-08-17T09:48:06.000Z</time>
</trkpt>
<trkpt lat="41.7637100" lon="13.7609250">
<ele>1593.19</ele>
<time>2024-08-17T09:48:13.000Z</time>
</trkpt>
<trkpt lat="41.7635450" lon="13.7610767">
<ele>1591.77</ele>
<time>2024-08-17T09:48:20.000Z</time>
</trkpt>
<trkpt lat="41.7633733" lon="13.7611967">
<ele>1590.72</ele>
<time>2024-08-17T09:48:27.000Z</time>
</trkpt>
<trkpt lat="41.7632033" lon="13.7613317">
<ele>1591.22</ele>
<time>2024-08-17T09:48:35.000Z</time>
</trkpt>
<trkpt lat="41.7630283" lon="13.7614400">
<ele>1590.84</ele>
<time>2024-08-17T09:48:42.000Z</time>
</trkpt>
<trkpt lat="41.7628517" lon="13.7615200">
<ele>1591.30</ele>
<time>2024-08-17T09:48:49.000Z</time>
</trkpt>
<trkpt lat="41.7627050" lon="13.7616833">
<ele>1591.55</ele>
<time>2024-08-17T09:49:01.000Z</time>
</trkpt>
<trkpt lat="41.7625700" lon="13.7618600">
<ele>1589.16</ele>
<time>2024-08-17T09:49:08.000Z</time>
</trkpt>
<trkpt lat="41.7624150" lon="13.7620200">
<ele>1583.47</ele>
<time>2024-08-17T09:49:16.000Z</time>
</trkpt>
<trkpt lat="41.7622600" lon="13.7621850">
<ele>1581.43</ele>
<time>2024-08-17T09:49:22.000Z</time>
</trkpt>
<trkpt lat="41.7621083" lon="13.7623167">
<ele>1578.98</ele>
<time>2024-08-17T09:49:31.000Z</time>
</trkpt>
<trkpt lat="41.7620700" lon="13.7625900">
<ele>1587.26</ele>
<time>2024-08-17T09:49:40.000Z</time>
</trkpt>
<trkpt lat="41.7622400" lon="13.7624700">
<ele>1580.37</ele>
<time>2024-08-17T09:50:10.000Z</time>
</trkpt>
<trkpt lat="41.7624033" lon="13.7623367">
<ele>1579.03</ele>
<time>2024-08-17T09:50:18.000Z</time>
</trkpt>
<trkpt lat="41.7623833" lon="13.7625800">
<ele>1577.31</ele>
<time>2024-08-17T09:50:34.000Z</time>
</trkpt>
<trkpt lat="41.7623167" lon="13.7628100">
<ele>1580.32</ele>
<time>2024-08-17T09:50:43.000Z</time>
</trkpt>
<trkpt lat="41.7623733" lon="13.7630567">
<ele>1580.51</ele>
<time>2024-08-17T09:50:52.000Z</time>
</trkpt>
<trkpt lat="41.7625033" lon="13.7632933">
<ele>1577.97</ele>
<time>2024-08-17T09:50:56.000Z</time>
</trkpt>
<trkpt lat="41.7625983" lon="13.7635167">
<ele>1570.09</ele>
<time>2024-08-17T09:51:02.000Z</time>
</trkpt>
<trkpt lat="41.7627133" lon="13.7637317">
<ele>1564.20</ele>
<time>2024-08-17T09:51:10.000Z</time>
</trkpt>
<trkpt lat="41.7628000" lon="13.7639500">
<ele>1563.34</ele>
<time>2024-08-17T09:51:20.000Z</time>
</trkpt>
<trkpt lat="41.7628583" lon="13.7641800">
<ele>1568.24</ele>
<time>2024-08-17T09:51:32.000Z</time>
</trkpt>
<trkpt lat="41.7628300" lon="13.7644533">
<ele>1567.15</ele>
<time>2024-08-17T09:51:40.000Z</time>
</trkpt>
<trkpt lat="41.7627783" lon="13.7647050">
<ele>1565.29</ele>
<time>2024-08-17T09:51:49.000Z</time>
</trkpt>
<trkpt lat="41.7626000" lon="13.7648467">
<ele>1560.01</ele>
<time>2024-08-17T09:52:01.000Z</time>
</trkpt>
<trkpt lat="41.7624733" lon="13.7650283">
<ele>1561.57</ele>
<time>2024-08-17T09:52:10.000Z</time>
</trkpt>
<trkpt lat="41.7623383" lon="13.7652183">
<ele>1561.06</ele>
<time>2024-08-17T09:52:15.000Z</time>
</trkpt>
<trkpt lat="41.7622317" lon="13.7654183">
<ele>1560.09</ele>
<time>2024-08-17T09:52:20.000Z</time>
</trkpt>
<trkpt lat="41.7621267" lon="13.7656333">
<ele>1559.03</ele>
<time>2024-08-17T09:52:25.000Z</time>
</trkpt>
<trkpt lat="41.7623067" lon="13.7655567">
<ele>1557.84</ele>
<time>2024-08-17T09:52:45.000Z</time>
</trkpt>
<trkpt lat="41.7624417" lon="13.7653900">
<ele>1555.59</ele>
<time>2024-08-17T09:52:56.000Z</time>
</trkpt>
<trkpt lat="41.7626250" lon="13.7652850">
<ele>1563.10</ele>
<time>2024-08-17T09:53:06.000Z</time>
</trkpt>
<trkpt lat="41.7628050" lon="13.7651983">
<ele>1561.01</ele>
<time>2024-08-17T09:53:13.000Z</time>
</trkpt>
<trkpt lat="41.7629983" lon="13.7652117">
<ele>1558.79</ele>
<time>2024-08-17T09:53:21.000Z</time>
</trkpt>
<trkpt lat="41.7631767" lon="13.7651233">
<ele>1552.95</ele>
<time>2024-08-17T09:53:30.000Z</time>
</trkpt>
<trkpt lat="41.7633017" lon="13.7649433">
<ele>1547.11</ele>
<time>2024-08-17T09:53:36.000Z</time>
</trkpt>
<trkpt lat="41.7633783" lon="13.7647117">
<ele>1540.68</ele>
<time>2024-08-17T09:53:44.000Z</time>
</trkpt>
<trkpt lat="41.7634017" lon="13.7644500">
<ele>1535.48</ele>
<time>2024-08-17T09:53:54.000Z</time>
</trkpt>
<trkpt lat="41.7634167" lon="13.7642017">
<ele>1533.85</ele>
<time>2024-08-17T09:54:05.000Z</time>
</trkpt>
<trkpt lat="41.7634517" lon="13.7639550">
<ele>1533.29</ele>
<time>2024-08-17T09:54:14.000Z</time>
</trkpt>
<trkpt lat="41.7635450" lon="13.7637333">
<ele>1530.54</ele>
<time>2024-08-17T09:54:24.000Z</time>
</trkpt>
<trkpt lat="41.7637150" lon="13.7636517">
<ele>1532.02</ele>
<time>2024-08-17T09:54:34.000Z</time>
</trkpt>
<trkpt lat="41.7638433" lon="13.7634650">
<ele>1531.26</ele>
<time>2024-08-17T09:54:44.000Z</time>
</trkpt>
<trkpt lat="41.7639683" lon="13.7632550">
<ele>1528.92</ele>
<time>2024-08-17T09:54:52.000Z</time>
</trkpt>
<trkpt lat="41.7641100" lon="13.7630800">
<ele>1530.80</ele>
<time>2024-08-17T09:54:58.000Z</time>
</trkpt>
<trkpt lat="41.7641917" lon="13.7628583">
<ele>1526.74</ele>
<time>2024-08-17T09:55:05.000Z</time>
</trkpt>
<trkpt lat="41.7642817" lon="13.7626100">
<ele>1524.85</ele>
<time>2024-08-17T09:55:12.000Z</time>
</trkpt>
<trkpt lat="41.7644017" lon="13.7624067">
<ele>1522.58</ele>
<time>2024-08-17T09:55:21.000Z</time>
</trkpt>
<trkpt lat="41.7645717" lon="13.7623050">
<ele>1522.84</ele>
<time>2024-08-17T09:55:28.000Z</time>
</trkpt>
<trkpt lat="41.7647650" lon="13.7623367">
<ele>1528.13</ele>
<time>2024-08-17T09:55:34.000Z</time>
</trkpt>
<trkpt lat="41.7649533" lon="13.7623850">
<ele>1533.63</ele>
<time>2024-08-17T09:55:40.000Z</time>
</trkpt>
<trkpt lat="41.7651583" lon="13.7624167">
<ele>1534.11</ele>
<time>2024-08-17T09:55:46.000Z</time>
</trkpt>
<trkpt lat="41.7653750" lon="13.7625050">
<ele>1532.63</ele>
<time>2024-08-17T09:55:52.000Z</time>
</trkpt>
<trkpt lat="41.7655417" lon="13.7626183">
<ele>1527.79</ele>
<time>2024-08-17T09:55:57.000Z</time>
</trkpt>
<trkpt lat="41.7656783" lon="13.7628133">
<ele>1525.10</ele>
<time>2024-08-17T09:56:06.000Z</time>
</trkpt>
<trkpt lat="41.7657883" lon="13.7630050">
<ele>1526.31</ele>
<time>2024-08-17T09:56:13.000Z</time>
</trkpt>
<trkpt lat="41.7658967" lon="13.7632283">
<ele>1524.76</ele>
<time>2024-08-17T09:56:19.000Z</time>
</trkpt>
<trkpt lat="41.7659600" lon="13.7634683">
<ele>1520.71</ele>
<time>2024-08-17T09:56:26.000Z</time>
</trkpt>
<trkpt lat="41.7660500" lon="13.7636967">
<ele>1515.31</ele>
<time>2024-08-17T09:56:34.000Z</time>
</trkpt>
<trkpt lat="41.7658900" lon="13.7635633">
<ele>1512.25</ele>
<time>2024-08-17T09:56:51.000Z</time>
</trkpt>
<trkpt lat="41.7658100" lon="13.7633383">
<ele>1510.11</ele>
<time>2024-08-17T09:56:59.000Z</time>
</trkpt>
<trkpt lat="41.7656450" lon="13.7632017">
<ele>1508.81</ele>
<time>2024-08-17T09:57:08.000Z</time>
</trkpt>
<trkpt lat="41.7654533" lon="13.7631583">
<ele>1505.29</ele>
<time>2024-08-17T09:57:16.000Z</time>
</trkpt>
<trkpt lat="41.7652967" lon="13.7632817">
<ele>1504.94</ele>
<time>2024-08-17T09:57:22.000Z</time>
</trkpt>
<trkpt lat="41.7652000" lon="13.7634950">
<ele>1505.39</ele>
<time>2024-08-17T09:57:29.000Z</time>
</trkpt>
<trkpt lat="41.7650983" lon="13.7637133">
<ele>1505.25</ele>
<time>2024-08-17T09:57:36.000Z</time>
</trkpt>
<trkpt lat="41.7649700" lon="13.7638983">
<ele>1503.79</ele>
<time>2024-08-17T09:57:43.000Z</time>
</trkpt>
<trkpt lat="41.7651400" lon="13.7639800">
<ele>1504.77</ele>
<time>2024-08-17T09:58:09.000Z</time>
</trkpt>
<trkpt lat="41.7653183" lon="13.7640667">
<ele>1511.13</ele>
<time>2024-08-17T09:58:19.000Z</time>
</trkpt>
<trkpt lat="41.7655300" lon="13.7641750">
<ele>1516.86</ele>
<time>2024-08-17T09:58:31.000Z</time>
</trkpt>
<trkpt lat="41.7657050" lon="13.7642583">
<ele>1515.14</ele>
<time>2024-08-17T09:58:36.000Z</time>
</trkpt>
<trkpt lat="41.7658667" lon="13.7644100">
<ele>1512.34</ele>
<time>2024-08-17T09:58:41.000Z</time>
</trkpt>
<trkpt lat="41.7660567" lon="13.7645283">
<ele>1505.36</ele>
<time>2024-08-17T09:58:50.000Z</time>
</trkpt>
<trkpt lat="41.7662267" lon="13.7646533">
<ele>1502.38</ele>
<time>2024-08-17T09:58:56.000Z</time>
</trkpt>
<trkpt lat="41.7663950" lon="13.7647783">
<ele>1506.01</ele>
<time>2024-08-17T09:59:04.000Z</time>
</trkpt>
<trkpt lat="41.7661917" lon="13.7647800">
<ele>1498.31</ele>
<time>2024-08-17T09:59:21.000Z</time>
</trkpt>
<trkpt lat="41.7660083" lon="13.7647133">
<ele>1489.78</ele>
<time>2024-08-17T09:59:27.000Z</time>
</trkpt>
<trkpt lat="41.7658183" lon="13.7646783">
<ele>1484.93</ele>
<time>2024-08-17T09:59:32.000Z</time>
</trkpt>
<trkpt lat="41.7656167" lon="13.7647033">
<ele>1482.33</ele>
<time>2024-08-17T09:59:38.000Z</time>
</trkpt>
<trkpt lat="41.7654400" lon="13.7647900">
<ele>1484.51</ele>
<time>2024-08-17T09:59:45.000Z</time>
</trkpt>
<trkpt lat="41.7653317" lon="13.7650233">
<ele>1486.18</ele>
<time>2024-08-17T09:59:52.000Z</time>
</trkpt>
<trkpt lat="41.7652967" lon="13.7652617">
<ele>1491.76</ele>
<time>2024-08-17T10:00:01.000Z</time>
</trkpt>
<trkpt lat="41.7653733" lon="13.7654883">
<ele>1493.52</ele>
<time>2024-08-17T10:00:08.000Z</time>
</trkpt>
<trkpt lat="41.7654750" lon="13.7657100">
<ele>1495.26</ele>
<time>2024-08-17T10:00:14.000Z</time>
</trkpt>
<trkpt lat="41.7655783" lon="13.7659283">
<ele>1495.38</ele>
<time>2024-08-17T10:00:20.000Z</time>
</trkpt>
<trkpt lat="41.7656383" lon="13.7661717">
<ele>1493.87</ele>
<time>2024-08-17T10:00:26.000Z</time>
</trkpt>
<trkpt lat="41.7657683" lon="13.7663700">
<ele>1489.47</ele>
<time>2024-08-17T10:00:32.000Z</time>
</trkpt>
<trkpt lat="41.7659150" lon="13.7665550">
<ele>1482.63</ele>
<time>2024-08-17T10:00:39.000Z</time>
</trkpt>
<trkpt lat="41.7660617" lon="13.7667433">
<ele>1478.17</ele>
<time>2024-08-17T10:00:50.000Z</time>
</trkpt>
<trkpt lat="41.7662083" lon="13.7669400">
<ele>1479.35</ele>
<time>2024-08-17T10:00:57.000Z</time>
</trkpt>
<trkpt lat="41.7663617" lon="13.7670800">
<ele>1480.91</ele>
<time>2024-08-17T10:01:04.000Z</time>
</trkpt>
<trkpt lat="41.7665033" lon="13.7672667">
<ele>1480.12</ele>
<time>2024-08-17T10:01:12.000Z</time>
</trkpt>
<trkpt lat="41.7666850" lon="13.7673783">
<ele>1478.25</ele>
<time>2024-08-17T10:01:18.000Z</time>
</trkpt>
<trkpt lat="41.7668817" lon="13.7674317">
<ele>1474.78</ele>
<time>2024-08-17T10:01:25.000Z</time>
</trkpt>
<trkpt lat="41.7670567" lon="13.7675033">
<ele>1470.16</ele>
<time>2024-08-17T10:01:34.000Z</time>
</trkpt>
<trkpt lat="41.7670650" lon="13.7672500">
<ele>1463.81</ele>
<time>2024-08-17T10:01:52.000Z</time>
</trkpt>
<trkpt lat="41.7669200" lon="13.7670667">
<ele>1460.29</ele>
<time>2024-08-17T10:02:02.000Z</time>
</trkpt>
<trkpt lat="41.7667900" lon="13.7668550">
<ele>1458.77</ele>
<time>2024-08-17T10:02:09.000Z</time>
</trkpt>
<trkpt lat="41.7668000" lon="13.7665850">
<ele>1457.46</ele>
<time>2024-08-17T10:02:16.000Z</time>
</trkpt>
<trkpt lat="41.7669900" lon="13.7666000">
<ele>1458.31</ele>
<time>2024-08-17T10:02:31.000Z</time>
</trkpt>
<trkpt lat="41.7671017" lon="13.7668150">
<ele>1460.60</ele>
<time>2024-08-17T10:02:39.000Z</time>
</trkpt>
<trkpt lat="41.7672700" lon="13.7669350">
<ele>1459.15</ele>
<time>2024-08-17T10:02:50.000Z</time>
</trkpt>
<trkpt lat="41.7674217" lon="13.7670717">
<ele>1459.63</ele>
<time>2024-08-17T10:02:56.000Z</time>
</trkpt>
<trkpt lat="41.7675717" lon="13.7672400">
<ele>1457.08</ele>
<time>2024-08-17T10:03:02.000Z</time>
</trkpt>
<trkpt lat="41.7677467" lon="13.7673817">
<ele>1453.69</ele>
<time>2024-08-17T10:03:09.000Z</time>
</trkpt>
<trkpt lat="41.7679133" lon="13.7675183">
<ele>1448.59</ele>
<time>2024-08-17T10:03:14.000Z</time>
</trkpt>
<trkpt lat="41.7680300" lon="13.7677050">
<ele>1443.60</ele>
<time>2024-08-17T10:03:20.000Z</time>
</trkpt>
<trkpt lat="41.7681267" lon="13.7679117">
<ele>1444.57</ele>
<time>2024-08-17T10:03:27.000Z</time>
</trkpt>
<trkpt lat="41.7681850" lon="13.7681583">
<ele>1450.30</ele>
<time>2024-08-17T10:03:35.000Z</time>
</trkpt>
<trkpt lat="41.7682683" lon="13.7683967">
<ele>1456.37</ele>
<time>2024-08-17T10:03:42.000Z</time>
</trkpt>
<trkpt lat="41.7683833" lon="13.7686300">
<ele>1454.30</ele>
<time>2024-08-17T10:03:45.000Z</time>
</trkpt>
<trkpt lat="41.7685017" lon="13.7688383">
<ele>1452.45</ele>
<time>2024-08-17T10:03:51.000Z</time>
</trkpt>
<trkpt lat="41.7686833" lon="13.7689633">
<ele>1450.87</ele>
<time>2024-08-17T10:04:00.000Z</time>
</trkpt>
<trkpt lat="41.7688383" lon="13.7691233">
<ele>1451.49</ele>
<time>2024-08-17T10:04:06.000Z</time>
</trkpt>
<trkpt lat="41.7690133" lon="13.7692283">
<ele>1451.95</ele>
<time>2024-08-17T10:04:11.000Z</time>
</trkpt>
<trkpt lat="41.7692067" lon="13.7692900">
<ele>1450.28</ele>
<time>2024-08-17T10:04:18.000Z</time>
</trkpt>
<trkpt lat="41.7693933" lon="13.7693333">
<ele>1444.39</ele>
<time>2024-08-17T10:04:26.000Z</time>
</trkpt>
<trkpt lat="41.7695967" lon="13.7693950">
<ele>1440.30</ele>
<time>2024-08-17T10:04:32.000Z</time>
</trkpt>
<trkpt lat="41.7698017" lon="13.7693467">
<ele>1436.95</ele>
<time>2024-08-17T10:04:38.000Z</time>
</trkpt>
<trkpt lat="41.7700050" lon="13.7692683">
<ele>1433.33</ele>
<time>2024-08-17T10:04:44.000Z</time>
</trkpt>
<trkpt lat="41.7702000" lon="13.7692217">
<ele>1428.65</ele>
<time>2024-08-17T10:04:50.000Z</time>
</trkpt>
<trkpt lat="41.7703733" lon="13.7691233">
<ele>1431.14</ele>
<time>2024-08-17T10:05:00.000Z</time>
</trkpt>
<trkpt lat="41.7705400" lon="13.7689783">
<ele>1432.16</ele>
<time>2024-08-17T10:05:09.000Z</time>
</trkpt>
<trkpt lat="41.7706717" lon="13.7687917">
<ele>1436.03</ele>
<time>2024-08-17T10:05:16.000Z</time>
</trkpt>
<trkpt lat="41.7707633" lon="13.7685483">
<ele>1435.75</ele>
<time>2024-08-17T10:05:24.000Z</time>
</trkpt>
<trkpt lat="41.7709017" lon="13.7683700">
<ele>1432.81</ele>
<time>2024-08-17T10:05:33.000Z</time>
</trkpt>
<trkpt lat="41.7710850" lon="13.7683067">
<ele>1432.28</ele>
<time>2024-08-17T10:05:42.000Z</time>
</trkpt>
<trkpt lat="41.7712467" lon="13.7681967">
<ele>1430.79</ele>
<time>2024-08-17T10:05:49.000Z</time>
</trkpt>
<trkpt lat="41.7714300" lon="13.7681367">
<ele>1428.90</ele>
<time>2024-08-17T10:05:57.000Z</time>
</trkpt>
<trkpt lat="41.7715833" lon="13.7679500">
<ele>1431.62</ele>
<time>2024-08-17T10:06:04.000Z</time>
</trkpt>
<trkpt lat="41.7716533" lon="13.7677150">
<ele>1433.89</ele>
<time>2024-08-17T10:06:13.000Z</time>
</trkpt>
<trkpt lat="41.7717283" lon="13.7674833">
<ele>1429.31</ele>
<time>2024-08-17T10:07:26.000Z</time>
</trkpt>
<trkpt lat="41.7718333" lon="13.7672767">
<ele>1428.10</ele>
<time>2024-08-17T10:07:39.000Z</time>
</trkpt>
<trkpt lat="41.7720200" lon="13.7672483">
<ele>1432.68</ele>
<time>2024-08-17T10:07:52.000Z</time>
</trkpt>
<trkpt lat="41.7721583" lon="13.7674083">
<ele>1439.70</ele>
<time>2024-08-17T10:08:00.000Z</time>
</trkpt>
<trkpt lat="41.7721883" lon="13.7676533">
<ele>1446.33</ele>
<time>2024-08-17T10:08:09.000Z</time>
</trkpt>
<trkpt lat="41.7721950" lon="13.7679150">
<ele>1446.40</ele>
<time>2024-08-17T10:08:16.000Z</time>
</trkpt>
<trkpt lat="41.7721550" lon="13.7681783">
<ele>1443.40</ele>
<time>2024-08-17T10:08:23.000Z</time>
</trkpt>
<trkpt lat="41.7720083" lon="13.7683700">
<ele>1428.30</ele>
<time>2024-08-17T10:08:29.000Z</time>
</trkpt>
<trkpt lat="41.7718233" lon="13.7685067">
<ele>1421.51</ele>
<time>2024-08-17T10:08:36.000Z</time>
</trkpt>
<trkpt lat="41.7716650" lon="13.7686750">
<ele>1421.33</ele>
<time>2024-08-17T10:08:42.000Z</time>
</trkpt>
<trkpt lat="41.7718450" lon="13.7686583">
<ele>1423.16</ele>
<time>2024-08-17T10:08:57.000Z</time>
</trkpt>
<trkpt lat="41.7720300" lon="13.7685767">
<ele>1422.65</ele>
<time>2024-08-17T10:09:05.000Z</time>
</trkpt>
<trkpt lat="41.7722300" lon="13.7685633">
<ele>1421.67</ele>
<time>2024-08-17T10:09:13.000Z</time>
</trkpt>
<trkpt lat="41.7723783" lon="13.7684067">
<ele>1418.43</ele>
<time>2024-08-17T10:09:19.000Z</time>
</trkpt>
<trkpt lat="41.7725217" lon="13.7682417">
<ele>1413.08</ele>
<time>2024-08-17T10:09:28.000Z</time>
</trkpt>
<trkpt lat="41.7727117" lon="13.7682283">
<ele>1412.52</ele>
<time>2024-08-17T10:09:38.000Z</time>
</trkpt>
<trkpt lat="41.7729050" lon="13.7681400">
<ele>1413.86</ele>
<time>2024-08-17T10:09:48.000Z</time>
</trkpt>
<trkpt lat="41.7730917" lon="13.7681383">
<ele>1414.26</ele>
<time>2024-08-17T10:09:55.000Z</time>
</trkpt>
<trkpt lat="41.7732567" lon="13.7682450">
<ele>1410.94</ele>
<time>2024-08-17T10:10:06.000Z</time>
</trkpt>
<trkpt lat="41.7734100" lon="13.7683850">
<ele>1411.39</ele>
<time>2024-08-17T10:10:15.000Z</time>
</trkpt>
<trkpt lat="41.7735300" lon="13.7685950">
<ele>1412.42</ele>
<time>2024-08-17T10:10:24.000Z</time>
</trkpt>
<trkpt lat="41.7735483" lon="13.7688350">
<ele>1415.46</ele>
<time>2024-08-17T10:10:32.000Z</time>
</trkpt>
<trkpt lat="41.7736133" lon="13.7690600">
<ele>1412.56</ele>
<time>2024-08-17T10:10:38.000Z</time>
</trkpt>
<trkpt lat="41.7737917" lon="13.7691733">
<ele>1404.24</ele>
<time>2024-08-17T10:10:48.000Z</time>
</trkpt>
<trkpt lat="41.7738317" lon="13.7694367">
<ele>1402.70</ele>
<time>2024-08-17T10:10:59.000Z</time>
</trkpt>
<trkpt lat="41.7739517" lon="13.7696483">
<ele>1401.32</ele>
<time>2024-08-17T10:11:06.000Z</time>
</trkpt>
<trkpt lat="41.7741333" lon="13.7696617">
<ele>1393.82</ele>
<time>2024-08-17T10:11:15.000Z</time>
</trkpt>
<trkpt lat="41.7743350" lon="13.7696417">
<ele>1393.37</ele>
<time>2024-08-17T10:11:24.000Z</time>
</trkpt>
<trkpt lat="41.7744867" lon="13.7698017">
<ele>1395.98</ele>
<time>2024-08-17T10:11:36.000Z</time>
</trkpt>
<trkpt lat="41.7745000" lon="13.7700800">
<ele>1395.86</ele>
<time>2024-08-17T10:11:44.000Z</time>
</trkpt>
<trkpt lat="41.7744783" lon="13.7703467">
<ele>1395.69</ele>
<time>2024-08-17T10:11:52.000Z</time>
</trkpt>
<trkpt lat="41.7744683" lon="13.7705967">
<ele>1391.29</ele>
<time>2024-08-17T10:12:00.000Z</time>
</trkpt>
<trkpt lat="41.7745083" lon="13.7708383">
<ele>1385.87</ele>
<time>2024-08-17T10:12:07.000Z</time>
</trkpt>
<trkpt lat="41.7745500" lon="13.7710750">
<ele>1375.98</ele>
<time>2024-08-17T10:12:13.000Z</time>
</trkpt>
<trkpt lat="41.7746767" lon="13.7712800">
<ele>1367.84</ele>
<time>2024-08-17T10:12:19.000Z</time>
</trkpt>
<trkpt lat="41.7748550" lon="13.7714200">
<ele>1368.85</ele>
<time>2024-08-17T10:12:25.000Z</time>
</trkpt>
<trkpt lat="41.7750433" lon="13.7714567">
<ele>1375.38</ele>
<time>2024-08-17T10:12:38.000Z</time>
</trkpt>
<trkpt lat="41.7752417" lon="13.7714967">
<ele>1376.42</ele>
<time>2024-08-17T10:12:50.000Z</time>
</trkpt>
<trkpt lat="41.7754183" lon="13.7715617">
<ele>1378.46</ele>
<time>2024-08-17T10:12:57.000Z</time>
</trkpt>
<trkpt lat="41.7756000" lon="13.7715483">
<ele>1375.03</ele>
<time>2024-08-17T10:13:05.000Z</time>
</trkpt>
<trkpt lat="41.7757883" lon="13.7714600">
<ele>1370.86</ele>
<time>2024-08-17T10:13:17.000Z</time>
</trkpt>
<trkpt lat="41.7759883" lon="13.7715083">
<ele>1368.16</ele>
<time>2024-08-17T10:13:28.000Z</time>
</trkpt>
<trkpt lat="41.7761767" lon="13.7715533">
<ele>1367.34</ele>
<time>2024-08-17T10:13:36.000Z</time>
</trkpt>
<trkpt lat="41.7763350" lon="13.7714367">
<ele>1365.81</ele>
<time>2024-08-17T10:13:45.000Z</time>
</trkpt>
<trkpt lat="41.7764817" lon="13.7712500">
<ele>1364.04</ele>
<time>2024-08-17T10:13:54.000Z</time>
</trkpt>
<trkpt lat="41.7766067" lon="13.7710467">
<ele>1359.98</ele>
<time>2024-08-17T10:14:01.000Z</time>
</trkpt>
<trkpt lat="41.7767800" lon="13.7709267">
<ele>1360.05</ele>
<time>2024-08-17T10:14:11.000Z</time>
</trkpt>
<trkpt lat="41.7769183" lon="13.7707600">
<ele>1357.98</ele>
<time>2024-08-17T10:14:17.000Z</time>
</trkpt>
<trkpt lat="41.7770650" lon="13.7706017">
<ele>1354.50</ele>
<time>2024-08-17T10:14:25.000Z</time>
</trkpt>
<trkpt lat="41.7772717" lon="13.7706433">
<ele>1364.96</ele>
<time>2024-08-17T10:14:34.000Z</time>
</trkpt>
<trkpt lat="41.7774483" lon="13.7707200">
<ele>1374.36</ele>
<time>2024-08-17T10:14:42.000Z</time>
</trkpt>
<trkpt lat="41.7776367" lon="13.7708067">
<ele>1376.28</ele>
<time>2024-08-17T10:14:51.000Z</time>
</trkpt>
<trkpt lat="41.7778000" lon="13.7709417">
<ele>1378.27</ele>
<time>2024-08-17T10:15:00.000Z</time>
</trkpt>
<trkpt lat="41.7779800" lon="13.7710583">
<ele>1374.75</ele>
<time>2024-08-17T10:15:09.000Z</time>
</trkpt>
<trkpt lat="41.7781450" lon="13.7711733">
<ele>1374.27</ele>
<time>2024-08-17T10:15:16.000Z</time>
</trkpt>
<trkpt lat="41.7783333" lon="13.7712517">
<ele>1372.66</ele>
<time>2024-08-17T10:15:22.000Z</time>
</trkpt>
<trkpt lat="41.7785217" lon="13.7712767">
<ele>1365.82</ele>
<time>2024-08-17T10:15:45.000Z</time>
</trkpt>
<trkpt lat="41.7786900" lon="13.7714017">
<ele>1366.34</ele>
<time>2024-08-17T10:15:55.000Z</time>
</trkpt>
<trkpt lat="41.7788483" lon="13.7715267">
<ele>1359.56</ele>
<time>2024-08-17T10:16:06.000Z</time>
</trkpt>
<trkpt lat="41.7790033" lon="13.7716617">
<ele>1360.38</ele>
<time>2024-08-17T10:16:18.000Z</time>
</trkpt>
<trkpt lat="41.7791750" lon="13.7717583">
<ele>1362.66</ele>
<time>2024-08-17T10:16:31.000Z</time>
</trkpt>
<trkpt lat="41.7792900" lon="13.7715583">
<ele>1361.14</ele>
<time>2024-08-17T10:16:43.000Z</time>
</trkpt>
<trkpt lat="41.7793183" lon="13.7713100">
<ele>1360.15</ele>
<time>2024-08-17T10:16:51.000Z</time>
</trkpt>
<trkpt lat="41.7793867" lon="13.7710483">
<ele>1363.83</ele>
<time>2024-08-17T10:16:59.000Z</time>
</trkpt>
<trkpt lat="41.7795217" lon="13.7708400">
<ele>1361.35</ele>
<time>2024-08-17T10:17:05.000Z</time>
</trkpt>
<trkpt lat="41.7796733" lon="13.7706667">
<ele>1352.60</ele>
<time>2024-08-17T10:17:13.000Z</time>
</trkpt>
<trkpt lat="41.7798617" lon="13.7706117">
<ele>1352.76</ele>
<time>2024-08-17T10:17:21.000Z</time>
</trkpt>
<trkpt lat="41.7800267" lon="13.7705050">
<ele>1349.52</ele>
<time>2024-08-17T10:17:31.000Z</time>
</trkpt>
<trkpt lat="41.7801817" lon="13.7703683">
<ele>1346.21</ele>
<time>2024-08-17T10:17:39.000Z</time>
</trkpt>
<trkpt lat="41.7803633" lon="13.7703283">
<ele>1344.75</ele>
<time>2024-08-17T10:17:50.000Z</time>
</trkpt>
<trkpt lat="41.7805467" lon="13.7703717">
<ele>1348.85</ele>
<time>2024-08-17T10:18:01.000Z</time>
</trkpt>
<trkpt lat="41.7807417" lon="13.7704267">
<ele>1352.89</ele>
<time>2024-08-17T10:18:09.000Z</time>
</trkpt>
<trkpt lat="41.7809183" lon="13.7705167">
<ele>1355.08</ele>
<time>2024-08-17T10:18:16.000Z</time>
</trkpt>
<trkpt lat="41.7810967" lon="13.7705817">
<ele>1355.02</ele>
<time>2024-08-17T10:18:25.000Z</time>
</trkpt>
<trkpt lat="41.7812700" lon="13.7704417">
<ele>1351.77</ele>
<time>2024-08-17T10:18:33.000Z</time>
</trkpt>
<trkpt lat="41.7814300" lon="13.7703150">
<ele>1351.82</ele>
<time>2024-08-17T10:18:43.000Z</time>
</trkpt>
<trkpt lat="41.7816100" lon="13.7702467">
<ele>1354.59</ele>
<time>2024-08-17T10:18:55.000Z</time>
</trkpt>
<trkpt lat="41.7818000" lon="13.7703017">
<ele>1349.73</ele>
<time>2024-08-17T10:21:00.000Z</time>
</trkpt>
<trkpt lat="41.7820000" lon="13.7703400">
<ele>1349.10</ele>
<time>2024-08-17T10:21:07.000Z</time>
</trkpt>
<trkpt lat="41.7821833" lon="13.7703550">
<ele>1345.44</ele>
<time>2024-08-17T10:21:13.000Z</time>
</trkpt>
<trkpt lat="41.7823800" lon="13.7703850">
<ele>1346.99</ele>
<time>2024-08-17T10:21:20.000Z</time>
</trkpt>
<trkpt lat="41.7825617" lon="13.7704883">
<ele>1349.53</ele>
<time>2024-08-17T10:21:26.000Z</time>
</trkpt>
<trkpt lat="41.7827500" lon="13.7706117">
<ele>1346.53</ele>
<time>2024-08-17T10:21:32.000Z</time>
</trkpt>
<trkpt lat="41.7829317" lon="13.7706633">
<ele>1345.00</ele>
<time>2024-08-17T10:21:38.000Z</time>
</trkpt>
<trkpt lat="41.7830933" lon="13.7705217">
<ele>1340.33</ele>
<time>2024-08-17T10:21:45.000Z</time>
</trkpt>
<trkpt lat="41.7832783" lon="13.7705467">
<ele>1336.46</ele>
<time>2024-08-17T10:21:52.000Z</time>
</trkpt>
<trkpt lat="41.7834383" lon="13.7706817">
<ele>1333.48</ele>
<time>2024-08-17T10:22:01.000Z</time>
</trkpt>
<trkpt lat="41.7836233" lon="13.7706383">
<ele>1331.73</ele>
<time>2024-08-17T10:22:07.000Z</time>
</trkpt>
<trkpt lat="41.7837500" lon="13.7704450">
<ele>1324.57</ele>
<time>2024-08-17T10:22:15.000Z</time>
</trkpt>
<trkpt lat="41.7839350" lon="13.7703083">
<ele>1327.51</ele>
<time>2024-08-17T10:22:24.000Z</time>
</trkpt>
<trkpt lat="41.7840700" lon="13.7701400">
<ele>1328.85</ele>
<time>2024-08-17T10:22:28.000Z</time>
</trkpt>
<trkpt lat="41.7842250" lon="13.7700133">
<ele>1328.89</ele>
<time>2024-08-17T10:22:39.000Z</time>
</trkpt>
<trkpt lat="41.7843700" lon="13.7698233">
<ele>1330.51</ele>
<time>2024-08-17T10:22:47.000Z</time>
</trkpt>
<trkpt lat="41.7844983" lon="13.7696517">
<ele>1330.99</ele>
<time>2024-08-17T10:22:53.000Z</time>
</trkpt>
<trkpt lat="41.7846750" lon="13.7697550">
<ele>1339.23</ele>
<time>2024-08-17T10:23:11.000Z</time>
</trkpt>
<trkpt lat="41.7847483" lon="13.7700300">
<ele>1338.96</ele>
<time>2024-08-17T10:23:18.000Z</time>
</trkpt>
<trkpt lat="41.7848033" lon="13.7702850">
<ele>1336.62</ele>
<time>2024-08-17T10:23:30.000Z</time>
</trkpt>
<trkpt lat="41.7848267" lon="13.7705333">
<ele>1333.67</ele>
<time>2024-08-17T10:23:38.000Z</time>
</trkpt>
<trkpt lat="41.7848083" lon="13.7708000">
<ele>1327.66</ele>
<time>2024-08-17T10:23:46.000Z</time>
</trkpt>
<trkpt lat="41.7847633" lon="13.7710450">
<ele>1325.41</ele>
<time>2024-08-17T10:23:54.000Z</time>
</trkpt>
<trkpt lat="41.7847450" lon="13.7712850">
<ele>1321.58</ele>
<time>2024-08-17T10:24:00.000Z</time>
</trkpt>
<trkpt lat="41.7847217" lon="13.7715317">
<ele>1318.69</ele>
<time>2024-08-17T10:24:06.000Z</time>
</trkpt>
<trkpt lat="41.7847100" lon="13.7717867">
<ele>1315.34</ele>
<time>2024-08-17T10:24:12.000Z</time>
</trkpt>
<trkpt lat="41.7847200" lon="13.7720850">
<ele>1314.83</ele>
<time>2024-08-17T10:24:20.000Z</time>
</trkpt>
<trkpt lat="41.7848600" lon="13.7722433">
<ele>1316.55</ele>
<time>2024-08-17T10:24:28.000Z</time>
</trkpt>
<trkpt lat="41.7849517" lon="13.7719933">
<ele>1301.88</ele>
<time>2024-08-17T10:24:36.000Z</time>
</trkpt>
<trkpt lat="41.7850633" lon="13.7717800">
<ele>1296.31</ele>
<time>2024-08-17T10:24:44.000Z</time>
</trkpt>
<trkpt lat="41.7851733" lon="13.7715383">
<ele>1296.19</ele>
<time>2024-08-17T10:24:51.000Z</time>
</trkpt>
<trkpt lat="41.7852767" lon="13.7713383">
<ele>1294.84</ele>
<time>2024-08-17T10:24:56.000Z</time>
</trkpt>
<trkpt lat="41.7853883" lon="13.7711133">
<ele>1294.90</ele>
<time>2024-08-17T10:25:02.000Z</time>
</trkpt>
<trkpt lat="41.7854800" lon="13.7708917">
<ele>1296.01</ele>
<time>2024-08-17T10:25:08.000Z</time>
</trkpt>
<trkpt lat="41.7855567" lon="13.7706583">
<ele>1297.26</ele>
<time>2024-08-17T10:25:18.000Z</time>
</trkpt>
<trkpt lat="41.7856383" lon="13.7704200">
<ele>1296.02</ele>
<time>2024-08-17T10:25:29.000Z</time>
</trkpt>
<trkpt lat="41.7857367" lon="13.7701783">
<ele>1294.04</ele>
<time>2024-08-17T10:25:38.000Z</time>
</trkpt>
<trkpt lat="41.7858300" lon="13.7699617">
<ele>1293.30</ele>
<time>2024-08-17T10:25:44.000Z</time>
</trkpt>
<trkpt lat="41.7859217" lon="13.7697483">
<ele>1291.77</ele>
<time>2024-08-17T10:25:50.000Z</time>
</trkpt>
<trkpt lat="41.7860267" lon="13.7695483">
<ele>1291.53</ele>
<time>2024-08-17T10:25:56.000Z</time>
</trkpt>
<trkpt lat="41.7861467" lon="13.7693250">
<ele>1288.98</ele>
<time>2024-08-17T10:26:04.000Z</time>
</trkpt>
<trkpt lat="41.7862533" lon="13.7691050">
<ele>1284.24</ele>
<time>2024-08-17T10:26:09.000Z</time>
</trkpt>
<trkpt lat="41.7863950" lon="13.7689417">
<ele>1281.25</ele>
<time>2024-08-17T10:26:16.000Z</time>
</trkpt>
<trkpt lat="41.7865367" lon="13.7687767">
<ele>1283.99</ele>
<time>2024-08-17T10:26:23.000Z</time>
</trkpt>
<trkpt lat="41.7866617" lon="13.7685733">
<ele>1287.58</ele>
<time>2024-08-17T10:26:32.000Z</time>
</trkpt>
<trkpt lat="41.7867733" lon="13.7683367">
<ele>1287.78</ele>
<time>2024-08-17T10:26:41.000Z</time>
</trkpt>
<trkpt lat="41.7868433" lon="13.7681100">
<ele>1285.91</ele>
<time>2024-08-17T10:26:51.000Z</time>
</trkpt>
<trkpt lat="41.7869350" lon="13.7678850">
<ele>1283.62</ele>
<time>2024-08-17T10:26:57.000Z</time>
</trkpt>
<trkpt lat="41.7869917" lon="13.7676500">
<ele>1276.29</ele>
<time>2024-08-17T10:27:04.000Z</time>
</trkpt>
<trkpt lat="41.7871267" lon="13.7674600">
<ele>1273.38</ele>
<time>2024-08-17T10:27:12.000Z</time>
</trkpt>
<trkpt lat="41.7872933" lon="13.7675633">
<ele>1272.08</ele>
<time>2024-08-17T10:27:23.000Z</time>
</trkpt>
<trkpt lat="41.7873867" lon="13.7677717">
<ele>1270.94</ele>
<time>2024-08-17T10:27:33.000Z</time>
</trkpt>
<trkpt lat="41.7873067" lon="13.7680017">
<ele>1271.33</ele>
<time>2024-08-17T10:27:42.000Z</time>
</trkpt>
<trkpt lat="41.7872083" lon="13.7682200">
<ele>1270.23</ele>
<time>2024-08-17T10:27:49.000Z</time>
</trkpt>
<trkpt lat="41.7871017" lon="13.7684317">
<ele>1270.54</ele>
<time>2024-08-17T10:27:58.000Z</time>
</trkpt>
<trkpt lat="41.7870467" lon="13.7686750">
<ele>1269.64</ele>
<time>2024-08-17T10:28:08.000Z</time>
</trkpt>
<trkpt lat="41.7869550" lon="13.7689000">
<ele>1270.08</ele>
<time>2024-08-17T10:28:18.000Z</time>
</trkpt>
<trkpt lat="41.7868883" lon="13.7691533">
<ele>1270.19</ele>
<time>2024-08-17T10:28:23.000Z</time>
</trkpt>
<trkpt lat="41.7868400" lon="13.7694117">
<ele>1266.08</ele>
<time>2024-08-17T10:28:31.000Z</time>
</trkpt>
<trkpt lat="41.7867500" lon="13.7696383">
<ele>1266.76</ele>
<time>2024-08-17T10:28:38.000Z</time>
</trkpt>
<trkpt lat="41.7866900" lon="13.7698833">
<ele>1269.93</ele>
<time>2024-08-17T10:28:43.000Z</time>
</trkpt>
<trkpt lat="41.7866400" lon="13.7701183">
<ele>1272.10</ele>
<time>2024-08-17T10:28:48.000Z</time>
</trkpt>
<trkpt lat="41.7866183" lon="13.7703683">
<ele>1272.23</ele>
<time>2024-08-17T10:28:55.000Z</time>
</trkpt>
<trkpt lat="41.7866133" lon="13.7706250">
<ele>1267.85</ele>
<time>2024-08-17T10:29:02.000Z</time>
</trkpt>
<trkpt lat="41.7866650" lon="13.7709000">
<ele>1263.87</ele>
<time>2024-08-17T10:29:06.000Z</time>
</trkpt>
<trkpt lat="41.7867283" lon="13.7711517">
<ele>1260.42</ele>
<time>2024-08-17T10:29:11.000Z</time>
</trkpt>
<trkpt lat="41.7867850" lon="13.7713900">
<ele>1254.59</ele>
<time>2024-08-17T10:29:19.000Z</time>
</trkpt>
<trkpt lat="41.7868567" lon="13.7716133">
<ele>1250.19</ele>
<time>2024-08-17T10:29:30.000Z</time>
</trkpt>
<trkpt lat="41.7868267" lon="13.7718667">
<ele>1247.10</ele>
<time>2024-08-17T10:29:36.000Z</time>
</trkpt>
<trkpt lat="41.7869383" lon="13.7720817">
<ele>1244.74</ele>
<time>2024-08-17T10:29:44.000Z</time>
</trkpt>
<trkpt lat="41.7870300" lon="13.7723083">
<ele>1244.06</ele>
<time>2024-08-17T10:29:59.000Z</time>
</trkpt>
<trkpt lat="41.7871133" lon="13.7725317">
<ele>1242.04</ele>
<time>2024-08-17T10:30:10.000Z</time>
</trkpt>
<trkpt lat="41.7872583" lon="13.7727117">
<ele>1238.60</ele>
<time>2024-08-17T10:30:17.000Z</time>
</trkpt>
<trkpt lat="41.7874083" lon="13.7728533">
<ele>1236.94</ele>
<time>2024-08-17T10:30:28.000Z</time>
</trkpt>
<trkpt lat="41.7875033" lon="13.7730783">
<ele>1236.02</ele>
<time>2024-08-17T10:30:36.000Z</time>
</trkpt>
<trkpt lat="41.7875700" lon="13.7733217">
<ele>1237.93</ele>
<time>2024-08-17T10:30:45.000Z</time>
</trkpt>
<trkpt lat="41.7877033" lon="13.7735017">
<ele>1233.31</ele>
<time>2024-08-17T10:30:54.000Z</time>
</trkpt>
<trkpt lat="41.7878600" lon="13.7736583">
<ele>1227.42</ele>
<time>2024-08-17T10:31:02.000Z</time>
</trkpt>
<trkpt lat="41.7879550" lon="13.7738733">
<ele>1227.73</ele>
<time>2024-08-17T10:31:13.000Z</time>
</trkpt>
<trkpt lat="41.7881083" lon="13.7740067">
<ele>1232.19</ele>
<time>2024-08-17T10:32:17.000Z</time>
</trkpt>
<trkpt lat="41.7882133" lon="13.7742367">
<ele>1231.86</ele>
<time>2024-08-17T10:32:28.000Z</time>
</trkpt>
<trkpt lat="41.7883883" lon="13.7743750">
<ele>1236.84</ele>
<time>2024-08-17T10:32:36.000Z</time>
</trkpt>
<trkpt lat="41.7885517" lon="13.7744983">
<ele>1238.68</ele>
<time>2024-08-17T10:32:42.000Z</time>
</trkpt>
<trkpt lat="41.7887133" lon="13.7746450">
<ele>1238.30</ele>
<time>2024-08-17T10:32:48.000Z</time>
</trkpt>
<trkpt lat="41.7888767" lon="13.7748017">
<ele>1238.39</ele>
<time>2024-08-17T10:32:55.000Z</time>
</trkpt>
<trkpt lat="41.7889667" lon="13.7750400">
<ele>1237.07</ele>
<time>2024-08-17T10:33:02.000Z</time>
</trkpt>
<trkpt lat="41.7890067" lon="13.7752800">
<ele>1234.68</ele>
<time>2024-08-17T10:33:09.000Z</time>
</trkpt>
<trkpt lat="41.7891067" lon="13.7754817">
<ele>1234.52</ele>
<time>2024-08-17T10:33:19.000Z</time>
</trkpt>
<trkpt lat="41.7891967" lon="13.7757150">
<ele>1236.27</ele>
<time>2024-08-17T10:33:25.000Z</time>
</trkpt>
<trkpt lat="41.7892550" lon="13.7759767">
<ele>1232.42</ele>
<time>2024-08-17T10:33:31.000Z</time>
</trkpt>
<trkpt lat="41.7893300" lon="13.7762250">
<ele>1228.91</ele>
<time>2024-08-17T10:33:37.000Z</time>
</trkpt>
<trkpt lat="41.7894517" lon="13.7764067">
<ele>1219.08</ele>
<time>2024-08-17T10:33:44.000Z</time>
</trkpt>
<trkpt lat="41.7895933" lon="13.7765917">
<ele>1207.44</ele>
<time>2024-08-17T10:33:57.000Z</time>
</trkpt>
<trkpt lat="41.7896950" lon="13.7768017">
<ele>1204.75</ele>
<time>2024-08-17T10:34:03.000Z</time>
</trkpt>
<trkpt lat="41.7897633" lon="13.7770600">
<ele>1202.40</ele>
<time>2024-08-17T10:34:09.000Z</time>
</trkpt>
<trkpt lat="41.7898683" lon="13.7772650">
<ele>1197.88</ele>
<time>2024-08-17T10:34:16.000Z</time>
</trkpt>
<trkpt lat="41.7900117" lon="13.7774150">
<ele>1196.85</ele>
<time>2024-08-17T10:34:22.000Z</time>
</trkpt>
<trkpt lat="41.7901633" lon="13.7775683">
<ele>1195.12</ele>
<time>2024-08-17T10:34:28.000Z</time>
</trkpt>
<trkpt lat="41.7903350" lon="13.7776850">
<ele>1191.91</ele>
<time>2024-08-17T10:34:34.000Z</time>
</trkpt>
<trkpt lat="41.7905467" lon="13.7777417">
<ele>1188.84</ele>
<time>2024-08-17T10:34:41.000Z</time>
</trkpt>
<trkpt lat="41.7907117" lon="13.7778550">
<ele>1186.49</ele>
<time>2024-08-17T10:34:46.000Z</time>
</trkpt>
<trkpt lat="41.7909017" lon="13.7779683">
<ele>1185.01</ele>
<time>2024-08-17T10:34:52.000Z</time>
</trkpt>
<trkpt lat="41.7910783" lon="13.7780433">
<ele>1186.24</ele>
<time>2024-08-17T10:34:57.000Z</time>
</trkpt>
<trkpt lat="41.7912550" lon="13.7781200">
<ele>1185.91</ele>
<time>2024-08-17T10:35:02.000Z</time>
</trkpt>
<trkpt lat="41.7914350" lon="13.7781867">
<ele>1182.88</ele>
<time>2024-08-17T10:35:08.000Z</time>
</trkpt>
<trkpt lat="41.7916217" lon="13.7782517">
<ele>1180.79</ele>
<time>2024-08-17T10:35:16.000Z</time>
</trkpt>
<trkpt lat="41.7918000" lon="13.7783617">
<ele>1177.96</ele>
<time>2024-08-17T10:35:23.000Z</time>
</trkpt>
<trkpt lat="41.7919883" lon="13.7784417">
<ele>1176.61</ele>
<time>2024-08-17T10:35:31.000Z</time>
</trkpt>
<trkpt lat="41.7921683" lon="13.7784900">
<ele>1175.80</ele>
<time>2024-08-17T10:35:38.000Z</time>
</trkpt>
<trkpt lat="41.7923450" lon="13.7785833">
<ele>1177.08</ele>
<time>2024-08-17T10:35:44.000Z</time>
</trkpt>
<trkpt lat="41.7925467" lon="13.7786767">
<ele>1179.08</ele>
<time>2024-08-17T10:35:49.000Z</time>
</trkpt>
<trkpt lat="41.7927600" lon="13.7787533">
<ele>1180.76</ele>
<time>2024-08-17T10:35:54.000Z</time>
</trkpt>
<trkpt lat="41.7929267" lon="13.7788483">
<ele>1181.45</ele>
<time>2024-08-17T10:35:58.000Z</time>
</trkpt>
<trkpt lat="41.7931283" lon="13.7789333">
<ele>1181.79</ele>
<time>2024-08-17T10:36:03.000Z</time>
</trkpt>
<trkpt lat="41.7933133" lon="13.7790200">
<ele>1181.85</ele>
<time>2024-08-17T10:36:08.000Z</time>
</trkpt>
<trkpt lat="41.7934883" lon="13.7791233">
<ele>1182.06</ele>
<time>2024-08-17T10:36:22.000Z</time>
</trkpt>
<trkpt lat="41.7936350" lon="13.7793217">
<ele>1178.26</ele>
<time>2024-08-17T10:36:28.000Z</time>
</trkpt>
<trkpt lat="41.7937333" lon="13.7795800">
<ele>1177.15</ele>
<time>2024-08-17T10:36:34.000Z</time>
</trkpt>
<trkpt lat="41.7938100" lon="13.7798017">
<ele>1176.24</ele>
<time>2024-08-17T10:36:39.000Z</time>
</trkpt>
<trkpt lat="41.7939083" lon="13.7800367">
<ele>1175.60</ele>
<time>2024-08-17T10:36:44.000Z</time>
</trkpt>
<trkpt lat="41.7939917" lon="13.7802533">
<ele>1174.13</ele>
<time>2024-08-17T10:36:48.000Z</time>
</trkpt>
<trkpt lat="41.7940767" lon="13.7804967">
<ele>1171.95</ele>
<time>2024-08-17T10:36:53.000Z</time>
</trkpt>
<trkpt lat="41.7941617" lon="13.7807100">
<ele>1171.35</ele>
<time>2024-08-17T10:36:59.000Z</time>
</trkpt>
<trkpt lat="41.7942350" lon="13.7809633">
<ele>1169.77</ele>
<time>2024-08-17T10:37:06.000Z</time>
</trkpt>
<trkpt lat="41.7942883" lon="13.7812017">
<ele>1168.17</ele>
<time>2024-08-17T10:37:12.000Z</time>
</trkpt>
<trkpt lat="41.7943617" lon="13.7814467">
<ele>1166.66</ele>
<time>2024-08-17T10:37:18.000Z</time>
</trkpt>
<trkpt lat="41.7944400" lon="13.7816983">
<ele>1167.00</ele>
<time>2024-08-17T10:37:24.000Z</time>
</trkpt>
<trkpt lat="41.7945117" lon="13.7819433">
<ele>1166.28</ele>
<time>2024-08-17T10:37:31.000Z</time>
</trkpt>
<trkpt lat="41.7945617" lon="13.7822000">
<ele>1165.20</ele>
<time>2024-08-17T10:37:37.000Z</time>
</trkpt>
<trkpt lat="41.7945917" lon="13.7824800">
<ele>1163.09</ele>
<time>2024-08-17T10:37:42.000Z</time>
</trkpt>
<trkpt lat="41.7946317" lon="13.7827433">
<ele>1163.64</ele>
<time>2024-08-17T10:37:47.000Z</time>
</trkpt>
<trkpt lat="41.7947067" lon="13.7830133">
<ele>1164.00</ele>
<time>2024-08-17T10:37:53.000Z</time>
</trkpt>
<trkpt lat="41.7947900" lon="13.7832600">
<ele>1164.11</ele>
<time>2024-08-17T10:37:59.000Z</time>
</trkpt>
<trkpt lat="41.7949250" lon="13.7834583">
<ele>1162.85</ele>
<time>2024-08-17T10:39:46.000Z</time>
</trkpt>
<trkpt lat="41.7951067" lon="13.7834917">
<ele>1165.27</ele>
<time>2024-08-17T10:39:59.000Z</time>
</trkpt>
<extensions>
<om:oruxmapsextensions>
</om:oruxmapsextensions>
</extensions>
</trkseg>
</trk>
</gpx>
